<?xml version="1.0" encoding="UTF-8" standalone="no" ?>
<gpx xmlns="http://www.topografix.com/GPX/1/1" xmlns:xsi="http://www.w3.org/2001/XMLSchema-instance" xsi:schemaLocation="http://www.topografix.com/GPX/1/1 http://www.topografix.com/GPX/1/1/gpx.xsd" version="1.1" creator="VisuGPX - https://www.visugpx.com">
  <metadata>
    <name>bonnebosq 13.3</name>
  </metadata>
  <trk>
    <name><![CDATA[bonnebosq 13.3]]></name>
    <extensions>
      <line xmlns="http://www.topografix.com/GPX/gpx_style/0/2">
        <width>3</width>
      </line>
    </extensions>
    <trkseg>
      <trkpt lat="49.20532" lon="0.07753">
        <ele>60.5</ele>
        <time>2020-10-22T07:13:07.000Z</time>
      </trkpt>
      <trkpt lat="49.20532" lon="0.07753">
        <ele>60.5</ele>
        <time>2020-10-22T07:13:08.000Z</time>
      </trkpt>
      <trkpt lat="49.20528" lon="0.07774">
        <ele>62.4</ele>
        <time>2020-10-22T07:14:35.000Z</time>
      </trkpt>
      <trkpt lat="49.20526" lon="0.07797">
        <ele>63.4</ele>
        <time>2020-10-22T07:14:48.000Z</time>
      </trkpt>
      <trkpt lat="49.20532" lon="0.07817">
        <ele>63.7</ele>
        <time>2020-10-22T07:15:00.000Z</time>
      </trkpt>
      <trkpt lat="49.20545" lon="0.07819">
        <ele>63.8</ele>
        <time>2020-10-22T07:15:12.000Z</time>
      </trkpt>
      <trkpt lat="49.20559" lon="0.07811">
        <ele>63.9</ele>
        <time>2020-10-22T07:15:25.000Z</time>
      </trkpt>
      <trkpt lat="49.20571" lon="0.07802">
        <ele>64.1</ele>
        <time>2020-10-22T07:15:36.000Z</time>
      </trkpt>
      <trkpt lat="49.20584" lon="0.07793">
        <ele>64.2</ele>
        <time>2020-10-22T07:15:49.000Z</time>
      </trkpt>
      <trkpt lat="49.20596" lon="0.07782">
        <ele>64.2</ele>
        <time>2020-10-22T07:16:00.000Z</time>
      </trkpt>
      <trkpt lat="49.20608" lon="0.07772">
        <ele>64.4</ele>
        <time>2020-10-22T07:16:12.000Z</time>
      </trkpt>
      <trkpt lat="49.20621" lon="0.07762">
        <ele>64.6</ele>
        <time>2020-10-22T07:16:22.000Z</time>
      </trkpt>
      <trkpt lat="49.20634" lon="0.07754">
        <ele>64.1</ele>
        <time>2020-10-22T07:16:35.000Z</time>
      </trkpt>
      <trkpt lat="49.20646" lon="0.07743">
        <ele>64.1</ele>
        <time>2020-10-22T07:16:48.000Z</time>
      </trkpt>
      <trkpt lat="49.20658" lon="0.07734">
        <ele>64.5</ele>
        <time>2020-10-22T07:17:02.000Z</time>
      </trkpt>
      <trkpt lat="49.20672" lon="0.07725">
        <ele>65.4</ele>
        <time>2020-10-22T07:17:13.000Z</time>
      </trkpt>
      <trkpt lat="49.20684" lon="0.07715">
        <ele>66</ele>
        <time>2020-10-22T07:17:25.000Z</time>
      </trkpt>
      <trkpt lat="49.20696" lon="0.07705">
        <ele>66.5</ele>
        <time>2020-10-22T07:17:36.000Z</time>
      </trkpt>
      <trkpt lat="49.20708" lon="0.07693">
        <ele>66.6</ele>
        <time>2020-10-22T07:17:45.000Z</time>
      </trkpt>
      <trkpt lat="49.20721" lon="0.07683">
        <ele>67.2</ele>
        <time>2020-10-22T07:17:59.000Z</time>
      </trkpt>
      <trkpt lat="49.20733" lon="0.07673">
        <ele>67.6</ele>
        <time>2020-10-22T07:18:10.000Z</time>
      </trkpt>
      <trkpt lat="49.20745" lon="0.07665">
        <ele>68.1</ele>
        <time>2020-10-22T07:18:20.000Z</time>
      </trkpt>
      <trkpt lat="49.20757" lon="0.07655">
        <ele>68.8</ele>
        <time>2020-10-22T07:18:32.000Z</time>
      </trkpt>
      <trkpt lat="49.2077" lon="0.07643">
        <ele>69.8</ele>
        <time>2020-10-22T07:18:46.000Z</time>
      </trkpt>
      <trkpt lat="49.20782" lon="0.07635">
        <ele>70.9</ele>
        <time>2020-10-22T07:18:58.000Z</time>
      </trkpt>
      <trkpt lat="49.20795" lon="0.07625">
        <ele>71.9</ele>
        <time>2020-10-22T07:19:11.000Z</time>
      </trkpt>
      <trkpt lat="49.20807" lon="0.07616">
        <ele>73</ele>
        <time>2020-10-22T07:19:25.000Z</time>
      </trkpt>
      <trkpt lat="49.20819" lon="0.07605">
        <ele>74.3</ele>
        <time>2020-10-22T07:19:38.000Z</time>
      </trkpt>
      <trkpt lat="49.20831" lon="0.07594">
        <ele>75.7</ele>
        <time>2020-10-22T07:19:50.000Z</time>
      </trkpt>
      <trkpt lat="49.20843" lon="0.07585">
        <ele>77</ele>
        <time>2020-10-22T07:20:03.000Z</time>
      </trkpt>
      <trkpt lat="49.20855" lon="0.07573">
        <ele>78.4</ele>
        <time>2020-10-22T07:20:15.000Z</time>
      </trkpt>
      <trkpt lat="49.20867" lon="0.07562">
        <ele>80.6</ele>
        <time>2020-10-22T07:20:33.000Z</time>
      </trkpt>
      <trkpt lat="49.20876" lon="0.07547">
        <ele>81.3</ele>
        <time>2020-10-22T07:20:45.000Z</time>
      </trkpt>
      <trkpt lat="49.20887" lon="0.07533">
        <ele>83.1</ele>
        <time>2020-10-22T07:21:00.000Z</time>
      </trkpt>
      <trkpt lat="49.20897" lon="0.07519">
        <ele>85</ele>
        <time>2020-10-22T07:21:14.000Z</time>
      </trkpt>
      <trkpt lat="49.20907" lon="0.07504">
        <ele>86.7</ele>
        <time>2020-10-22T07:21:30.000Z</time>
      </trkpt>
      <trkpt lat="49.20918" lon="0.0749">
        <ele>88.3</ele>
        <time>2020-10-22T07:21:44.000Z</time>
      </trkpt>
      <trkpt lat="49.20929" lon="0.07479">
        <ele>90.4</ele>
        <time>2020-10-22T07:22:00.000Z</time>
      </trkpt>
      <trkpt lat="49.20939" lon="0.07464">
        <ele>91.9</ele>
        <time>2020-10-22T07:22:14.000Z</time>
      </trkpt>
      <trkpt lat="49.20951" lon="0.07455">
        <ele>93.2</ele>
        <time>2020-10-22T07:22:27.000Z</time>
      </trkpt>
      <trkpt lat="49.20963" lon="0.07443">
        <ele>94.6</ele>
        <time>2020-10-22T07:22:40.000Z</time>
      </trkpt>
      <trkpt lat="49.20974" lon="0.07431">
        <ele>96</ele>
        <time>2020-10-22T07:22:52.000Z</time>
      </trkpt>
      <trkpt lat="49.20987" lon="0.0742">
        <ele>97.3</ele>
        <time>2020-10-22T07:23:05.000Z</time>
      </trkpt>
      <trkpt lat="49.21" lon="0.07413">
        <ele>98.9</ele>
        <time>2020-10-22T07:23:19.000Z</time>
      </trkpt>
      <trkpt lat="49.21011" lon="0.07402">
        <ele>100.1</ele>
        <time>2020-10-22T07:23:32.000Z</time>
      </trkpt>
      <trkpt lat="49.21022" lon="0.0739">
        <ele>101.5</ele>
        <time>2020-10-22T07:23:46.000Z</time>
      </trkpt>
      <trkpt lat="49.21034" lon="0.07377">
        <ele>103.3</ele>
        <time>2020-10-22T07:23:59.000Z</time>
      </trkpt>
      <trkpt lat="49.21041" lon="0.07358">
        <ele>104.9</ele>
        <time>2020-10-22T07:24:13.000Z</time>
      </trkpt>
      <trkpt lat="49.21051" lon="0.07342">
        <ele>106.1</ele>
        <time>2020-10-22T07:24:26.000Z</time>
      </trkpt>
      <trkpt lat="49.21059" lon="0.07326">
        <ele>107</ele>
        <time>2020-10-22T07:24:35.000Z</time>
      </trkpt>
      <trkpt lat="49.21067" lon="0.07309">
        <ele>107.9</ele>
        <time>2020-10-22T07:24:47.000Z</time>
      </trkpt>
      <trkpt lat="49.21076" lon="0.07292">
        <ele>108.7</ele>
        <time>2020-10-22T07:24:59.000Z</time>
      </trkpt>
      <trkpt lat="49.21085" lon="0.07276">
        <ele>109.7</ele>
        <time>2020-10-22T07:25:11.000Z</time>
      </trkpt>
      <trkpt lat="49.21095" lon="0.07263">
        <ele>110.6</ele>
        <time>2020-10-22T07:25:23.000Z</time>
      </trkpt>
      <trkpt lat="49.21107" lon="0.07252">
        <ele>111.4</ele>
        <time>2020-10-22T07:25:36.000Z</time>
      </trkpt>
      <trkpt lat="49.21119" lon="0.07241">
        <ele>112.3</ele>
        <time>2020-10-22T07:25:48.000Z</time>
      </trkpt>
      <trkpt lat="49.21132" lon="0.07232">
        <ele>113.2</ele>
        <time>2020-10-22T07:26:00.000Z</time>
      </trkpt>
      <trkpt lat="49.21146" lon="0.07223">
        <ele>114.2</ele>
        <time>2020-10-22T07:26:13.000Z</time>
      </trkpt>
      <trkpt lat="49.21158" lon="0.07215">
        <ele>114.8</ele>
        <time>2020-10-22T07:26:26.000Z</time>
      </trkpt>
      <trkpt lat="49.21167" lon="0.07233">
        <ele>115.3</ele>
        <time>2020-10-22T07:26:39.000Z</time>
      </trkpt>
      <trkpt lat="49.21173" lon="0.07252">
        <ele>115.9</ele>
        <time>2020-10-22T07:26:51.000Z</time>
      </trkpt>
      <trkpt lat="49.21179" lon="0.07271">
        <ele>116</ele>
        <time>2020-10-22T07:27:02.000Z</time>
      </trkpt>
      <trkpt lat="49.21187" lon="0.07289">
        <ele>115.8</ele>
        <time>2020-10-22T07:27:16.000Z</time>
      </trkpt>
      <trkpt lat="49.21195" lon="0.07306">
        <ele>115.6</ele>
        <time>2020-10-22T07:27:27.000Z</time>
      </trkpt>
      <trkpt lat="49.21205" lon="0.07321">
        <ele>115.3</ele>
        <time>2020-10-22T07:27:38.000Z</time>
      </trkpt>
      <trkpt lat="49.21213" lon="0.07338">
        <ele>114.4</ele>
        <time>2020-10-22T07:27:49.000Z</time>
      </trkpt>
      <trkpt lat="49.21219" lon="0.07358">
        <ele>114.5</ele>
        <time>2020-10-22T07:28:02.000Z</time>
      </trkpt>
      <trkpt lat="49.21229" lon="0.07372">
        <ele>114.3</ele>
        <time>2020-10-22T07:28:13.000Z</time>
      </trkpt>
      <trkpt lat="49.21238" lon="0.07387">
        <ele>114.2</ele>
        <time>2020-10-22T07:28:23.000Z</time>
      </trkpt>
      <trkpt lat="49.21248" lon="0.07402">
        <ele>114.5</ele>
        <time>2020-10-22T07:28:36.000Z</time>
      </trkpt>
      <trkpt lat="49.21258" lon="0.07418">
        <ele>114.5</ele>
        <time>2020-10-22T07:28:47.000Z</time>
      </trkpt>
      <trkpt lat="49.21269" lon="0.0743">
        <ele>114.4</ele>
        <time>2020-10-22T07:28:58.000Z</time>
      </trkpt>
      <trkpt lat="49.2128" lon="0.07442">
        <ele>114.6</ele>
        <time>2020-10-22T07:29:10.000Z</time>
      </trkpt>
      <trkpt lat="49.21291" lon="0.07455">
        <ele>115</ele>
        <time>2020-10-22T07:29:22.000Z</time>
      </trkpt>
      <trkpt lat="49.21302" lon="0.07467">
        <ele>115.3</ele>
        <time>2020-10-22T07:29:35.000Z</time>
      </trkpt>
      <trkpt lat="49.21314" lon="0.07478">
        <ele>115.6</ele>
        <time>2020-10-22T07:29:45.000Z</time>
      </trkpt>
      <trkpt lat="49.21327" lon="0.0749">
        <ele>116.2</ele>
        <time>2020-10-22T07:29:56.000Z</time>
      </trkpt>
      <trkpt lat="49.21338" lon="0.07503">
        <ele>116.5</ele>
        <time>2020-10-22T07:30:08.000Z</time>
      </trkpt>
      <trkpt lat="49.21351" lon="0.07513">
        <ele>116.8</ele>
        <time>2020-10-22T07:30:20.000Z</time>
      </trkpt>
      <trkpt lat="49.21364" lon="0.07524">
        <ele>116.8</ele>
        <time>2020-10-22T07:30:32.000Z</time>
      </trkpt>
      <trkpt lat="49.21375" lon="0.07537">
        <ele>116.7</ele>
        <time>2020-10-22T07:30:44.000Z</time>
      </trkpt>
      <trkpt lat="49.21388" lon="0.07547">
        <ele>116.5</ele>
        <time>2020-10-22T07:30:55.000Z</time>
      </trkpt>
      <trkpt lat="49.21401" lon="0.07555">
        <ele>117.2</ele>
        <time>2020-10-22T07:31:06.000Z</time>
      </trkpt>
      <trkpt lat="49.21413" lon="0.07565">
        <ele>118.1</ele>
        <time>2020-10-22T07:31:17.000Z</time>
      </trkpt>
      <trkpt lat="49.21425" lon="0.07575">
        <ele>118.6</ele>
        <time>2020-10-22T07:31:27.000Z</time>
      </trkpt>
      <trkpt lat="49.21437" lon="0.07584">
        <ele>118.6</ele>
        <time>2020-10-22T07:31:39.000Z</time>
      </trkpt>
      <trkpt lat="49.2145" lon="0.07592">
        <ele>119</ele>
        <time>2020-10-22T07:31:51.000Z</time>
      </trkpt>
      <trkpt lat="49.21463" lon="0.07602">
        <ele>119.4</ele>
        <time>2020-10-22T07:32:04.000Z</time>
      </trkpt>
      <trkpt lat="49.21478" lon="0.07608">
        <ele>119.8</ele>
        <time>2020-10-22T07:32:16.000Z</time>
      </trkpt>
      <trkpt lat="49.21493" lon="0.07611">
        <ele>120.1</ele>
        <time>2020-10-22T07:32:28.000Z</time>
      </trkpt>
      <trkpt lat="49.21506" lon="0.07618">
        <ele>120.5</ele>
        <time>2020-10-22T07:32:40.000Z</time>
      </trkpt>
      <trkpt lat="49.2152" lon="0.07623">
        <ele>120.9</ele>
        <time>2020-10-22T07:32:53.000Z</time>
      </trkpt>
      <trkpt lat="49.21535" lon="0.07625">
        <ele>121.1</ele>
        <time>2020-10-22T07:33:05.000Z</time>
      </trkpt>
      <trkpt lat="49.21548" lon="0.07626">
        <ele>121.3</ele>
        <time>2020-10-22T07:33:16.000Z</time>
      </trkpt>
      <trkpt lat="49.21562" lon="0.07627">
        <ele>121.6</ele>
        <time>2020-10-22T07:33:27.000Z</time>
      </trkpt>
      <trkpt lat="49.21576" lon="0.07628">
        <ele>122</ele>
        <time>2020-10-22T07:33:39.000Z</time>
      </trkpt>
      <trkpt lat="49.21591" lon="0.0763">
        <ele>122.1</ele>
        <time>2020-10-22T07:33:51.000Z</time>
      </trkpt>
      <trkpt lat="49.21604" lon="0.0763">
        <ele>122.3</ele>
        <time>2020-10-22T07:34:02.000Z</time>
      </trkpt>
      <trkpt lat="49.21618" lon="0.07631">
        <ele>123</ele>
        <time>2020-10-22T07:34:13.000Z</time>
      </trkpt>
      <trkpt lat="49.21632" lon="0.07631">
        <ele>123.5</ele>
        <time>2020-10-22T07:34:24.000Z</time>
      </trkpt>
      <trkpt lat="49.21646" lon="0.07633">
        <ele>124</ele>
        <time>2020-10-22T07:34:36.000Z</time>
      </trkpt>
      <trkpt lat="49.21661" lon="0.07636">
        <ele>124.7</ele>
        <time>2020-10-22T07:34:49.000Z</time>
      </trkpt>
      <trkpt lat="49.21675" lon="0.07639">
        <ele>125.1</ele>
        <time>2020-10-22T07:35:01.000Z</time>
      </trkpt>
      <trkpt lat="49.21689" lon="0.07638">
        <ele>125.8</ele>
        <time>2020-10-22T07:35:13.000Z</time>
      </trkpt>
      <trkpt lat="49.21703" lon="0.07641">
        <ele>126.1</ele>
        <time>2020-10-22T07:35:26.000Z</time>
      </trkpt>
      <trkpt lat="49.21718" lon="0.07642">
        <ele>126.5</ele>
        <time>2020-10-22T07:35:39.000Z</time>
      </trkpt>
      <trkpt lat="49.21732" lon="0.07643">
        <ele>127.2</ele>
        <time>2020-10-22T07:35:52.000Z</time>
      </trkpt>
      <trkpt lat="49.21746" lon="0.07644">
        <ele>127.3</ele>
        <time>2020-10-22T07:36:03.000Z</time>
      </trkpt>
      <trkpt lat="49.21759" lon="0.07646">
        <ele>127</ele>
        <time>2020-10-22T07:36:15.000Z</time>
      </trkpt>
      <trkpt lat="49.21774" lon="0.07649">
        <ele>127.6</ele>
        <time>2020-10-22T07:36:27.000Z</time>
      </trkpt>
      <trkpt lat="49.21787" lon="0.07654">
        <ele>127.7</ele>
        <time>2020-10-22T07:36:40.000Z</time>
      </trkpt>
      <trkpt lat="49.21802" lon="0.07654">
        <ele>127.7</ele>
        <time>2020-10-22T07:36:50.000Z</time>
      </trkpt>
      <trkpt lat="49.21816" lon="0.07648">
        <ele>127.6</ele>
        <time>2020-10-22T07:37:01.000Z</time>
      </trkpt>
      <trkpt lat="49.2183" lon="0.07649">
        <ele>127.1</ele>
        <time>2020-10-22T07:37:14.000Z</time>
      </trkpt>
      <trkpt lat="49.21844" lon="0.07649">
        <ele>125.9</ele>
        <time>2020-10-22T07:37:27.000Z</time>
      </trkpt>
      <trkpt lat="49.21859" lon="0.07648">
        <ele>124.8</ele>
        <time>2020-10-22T07:37:37.000Z</time>
      </trkpt>
      <trkpt lat="49.21873" lon="0.07645">
        <ele>123.4</ele>
        <time>2020-10-22T07:37:47.000Z</time>
      </trkpt>
      <trkpt lat="49.21887" lon="0.07644">
        <ele>121.9</ele>
        <time>2020-10-22T07:37:59.000Z</time>
      </trkpt>
      <trkpt lat="49.219" lon="0.0764">
        <ele>120.3</ele>
        <time>2020-10-22T07:38:11.000Z</time>
      </trkpt>
      <trkpt lat="49.21914" lon="0.07637">
        <ele>118.7</ele>
        <time>2020-10-22T07:38:22.000Z</time>
      </trkpt>
      <trkpt lat="49.21928" lon="0.07634">
        <ele>117.3</ele>
        <time>2020-10-22T07:38:34.000Z</time>
      </trkpt>
      <trkpt lat="49.21942" lon="0.07629">
        <ele>116.1</ele>
        <time>2020-10-22T07:39:04.000Z</time>
      </trkpt>
      <trkpt lat="49.21954" lon="0.07642">
        <ele>114.1</ele>
        <time>2020-10-22T07:39:19.000Z</time>
      </trkpt>
      <trkpt lat="49.21966" lon="0.07654">
        <ele>115.6</ele>
        <time>2020-10-22T07:39:34.000Z</time>
      </trkpt>
      <trkpt lat="49.21979" lon="0.0766">
        <ele>116.7</ele>
        <time>2020-10-22T07:39:48.000Z</time>
      </trkpt>
      <trkpt lat="49.21991" lon="0.07671">
        <ele>120.6</ele>
        <time>2020-10-22T07:40:08.000Z</time>
      </trkpt>
      <trkpt lat="49.21997" lon="0.07691">
        <ele>122.1</ele>
        <time>2020-10-22T07:40:20.000Z</time>
      </trkpt>
      <trkpt lat="49.22006" lon="0.07707">
        <ele>124.2</ele>
        <time>2020-10-22T07:40:40.000Z</time>
      </trkpt>
      <trkpt lat="49.22018" lon="0.07718">
        <ele>124.4</ele>
        <time>2020-10-22T07:40:49.000Z</time>
      </trkpt>
      <trkpt lat="49.22032" lon="0.07723">
        <ele>125.4</ele>
        <time>2020-10-22T07:41:01.000Z</time>
      </trkpt>
      <trkpt lat="49.22045" lon="0.0773">
        <ele>126.2</ele>
        <time>2020-10-22T07:41:11.000Z</time>
      </trkpt>
      <trkpt lat="49.2206" lon="0.07736">
        <ele>127.6</ele>
        <time>2020-10-22T07:41:27.000Z</time>
      </trkpt>
      <trkpt lat="49.22073" lon="0.07746">
        <ele>128.1</ele>
        <time>2020-10-22T07:41:40.000Z</time>
      </trkpt>
      <trkpt lat="49.22084" lon="0.07758">
        <ele>128.9</ele>
        <time>2020-10-22T07:41:52.000Z</time>
      </trkpt>
      <trkpt lat="49.22096" lon="0.0777">
        <ele>128.5</ele>
        <time>2020-10-22T07:42:06.000Z</time>
      </trkpt>
      <trkpt lat="49.22107" lon="0.07781">
        <ele>128.6</ele>
        <time>2020-10-22T07:42:18.000Z</time>
      </trkpt>
      <trkpt lat="49.22116" lon="0.07801">
        <ele>127.7</ele>
        <time>2020-10-22T07:42:33.000Z</time>
      </trkpt>
      <trkpt lat="49.22121" lon="0.07821">
        <ele>126.7</ele>
        <time>2020-10-22T07:42:49.000Z</time>
      </trkpt>
      <trkpt lat="49.22127" lon="0.0784">
        <ele>125.9</ele>
        <time>2020-10-22T07:43:01.000Z</time>
      </trkpt>
      <trkpt lat="49.22132" lon="0.07859">
        <ele>124</ele>
        <time>2020-10-22T07:43:16.000Z</time>
      </trkpt>
      <trkpt lat="49.2214" lon="0.07876">
        <ele>123</ele>
        <time>2020-10-22T07:43:27.000Z</time>
      </trkpt>
      <trkpt lat="49.22149" lon="0.07891">
        <ele>120.4</ele>
        <time>2020-10-22T07:43:48.000Z</time>
      </trkpt>
      <trkpt lat="49.22155" lon="0.0791">
        <ele>118.6</ele>
        <time>2020-10-22T07:43:59.000Z</time>
      </trkpt>
      <trkpt lat="49.22162" lon="0.07928">
        <ele>114.4</ele>
        <time>2020-10-22T07:44:20.000Z</time>
      </trkpt>
      <trkpt lat="49.22171" lon="0.07944">
        <ele>111.5</ele>
        <time>2020-10-22T07:44:35.000Z</time>
      </trkpt>
      <trkpt lat="49.22177" lon="0.07965">
        <ele>108.4</ele>
        <time>2020-10-22T07:44:52.000Z</time>
      </trkpt>
      <trkpt lat="49.22177" lon="0.07987">
        <ele>106.3</ele>
        <time>2020-10-22T07:45:05.000Z</time>
      </trkpt>
      <trkpt lat="49.22186" lon="0.08003">
        <ele>105.9</ele>
        <time>2020-10-22T07:45:14.000Z</time>
      </trkpt>
      <trkpt lat="49.22193" lon="0.08021">
        <ele>106.1</ele>
        <time>2020-10-22T07:45:28.000Z</time>
      </trkpt>
      <trkpt lat="49.222" lon="0.08039">
        <ele>106.4</ele>
        <time>2020-10-22T07:45:44.000Z</time>
      </trkpt>
      <trkpt lat="49.22214" lon="0.08038">
        <ele>109.1</ele>
        <time>2020-10-22T07:46:16.000Z</time>
      </trkpt>
      <trkpt lat="49.22224" lon="0.08024">
        <ele>111.7</ele>
        <time>2020-10-22T07:46:33.000Z</time>
      </trkpt>
      <trkpt lat="49.22236" lon="0.08015">
        <ele>114.2</ele>
        <time>2020-10-22T07:46:51.000Z</time>
      </trkpt>
      <trkpt lat="49.22246" lon="0.08">
        <ele>115.1</ele>
        <time>2020-10-22T07:47:08.000Z</time>
      </trkpt>
      <trkpt lat="49.22256" lon="0.07983">
        <ele>114.9</ele>
        <time>2020-10-22T07:47:21.000Z</time>
      </trkpt>
      <trkpt lat="49.22268" lon="0.07972">
        <ele>114.6</ele>
        <time>2020-10-22T07:47:30.000Z</time>
      </trkpt>
      <trkpt lat="49.22271" lon="0.07952">
        <ele>114.3</ele>
        <time>2020-10-22T07:47:38.000Z</time>
      </trkpt>
      <trkpt lat="49.22278" lon="0.07933">
        <ele>114</ele>
        <time>2020-10-22T07:47:49.000Z</time>
      </trkpt>
      <trkpt lat="49.2229" lon="0.07921">
        <ele>116.6</ele>
        <time>2020-10-22T07:48:10.000Z</time>
      </trkpt>
      <trkpt lat="49.223" lon="0.07906">
        <ele>118.5</ele>
        <time>2020-10-22T07:48:23.000Z</time>
      </trkpt>
      <trkpt lat="49.22312" lon="0.07895">
        <ele>120.1</ele>
        <time>2020-10-22T07:48:34.000Z</time>
      </trkpt>
      <trkpt lat="49.22326" lon="0.07896">
        <ele>121.7</ele>
        <time>2020-10-22T07:48:50.000Z</time>
      </trkpt>
      <trkpt lat="49.22337" lon="0.07914">
        <ele>123.7</ele>
        <time>2020-10-22T07:49:06.000Z</time>
      </trkpt>
      <trkpt lat="49.22349" lon="0.07925">
        <ele>125.9</ele>
        <time>2020-10-22T07:49:22.000Z</time>
      </trkpt>
      <trkpt lat="49.22362" lon="0.07932">
        <ele>126.9</ele>
        <time>2020-10-22T07:49:37.000Z</time>
      </trkpt>
      <trkpt lat="49.22375" lon="0.0793">
        <ele>127.5</ele>
        <time>2020-10-22T07:49:49.000Z</time>
      </trkpt>
      <trkpt lat="49.22385" lon="0.07945">
        <ele>127.6</ele>
        <time>2020-10-22T07:49:57.000Z</time>
      </trkpt>
      <trkpt lat="49.224" lon="0.07945">
        <ele>128</ele>
        <time>2020-10-22T07:50:13.000Z</time>
      </trkpt>
      <trkpt lat="49.22414" lon="0.07944">
        <ele>128.1</ele>
        <time>2020-10-22T07:50:27.000Z</time>
      </trkpt>
      <trkpt lat="49.22427" lon="0.07945">
        <ele>128.2</ele>
        <time>2020-10-22T07:50:38.000Z</time>
      </trkpt>
      <trkpt lat="49.22441" lon="0.0795">
        <ele>128.4</ele>
        <time>2020-10-22T07:50:51.000Z</time>
      </trkpt>
      <trkpt lat="49.22455" lon="0.07949">
        <ele>128.6</ele>
        <time>2020-10-22T07:51:02.000Z</time>
      </trkpt>
      <trkpt lat="49.22469" lon="0.07945">
        <ele>129.1</ele>
        <time>2020-10-22T07:51:18.000Z</time>
      </trkpt>
      <trkpt lat="49.22482" lon="0.07946">
        <ele>129.7</ele>
        <time>2020-10-22T07:51:32.000Z</time>
      </trkpt>
      <trkpt lat="49.22496" lon="0.07945">
        <ele>129.8</ele>
        <time>2020-10-22T07:51:47.000Z</time>
      </trkpt>
      <trkpt lat="49.2251" lon="0.07941">
        <ele>129.3</ele>
        <time>2020-10-22T07:51:59.000Z</time>
      </trkpt>
      <trkpt lat="49.22524" lon="0.07941">
        <ele>129</ele>
        <time>2020-10-22T07:52:11.000Z</time>
      </trkpt>
      <trkpt lat="49.22538" lon="0.07946">
        <ele>129.1</ele>
        <time>2020-10-22T07:52:21.000Z</time>
      </trkpt>
      <trkpt lat="49.22551" lon="0.0795">
        <ele>128.7</ele>
        <time>2020-10-22T07:52:32.000Z</time>
      </trkpt>
      <trkpt lat="49.22565" lon="0.07949">
        <ele>128.6</ele>
        <time>2020-10-22T07:52:46.000Z</time>
      </trkpt>
      <trkpt lat="49.22579" lon="0.07952">
        <ele>128.4</ele>
        <time>2020-10-22T07:52:59.000Z</time>
      </trkpt>
      <trkpt lat="49.22593" lon="0.07957">
        <ele>128.7</ele>
        <time>2020-10-22T07:53:12.000Z</time>
      </trkpt>
      <trkpt lat="49.22607" lon="0.07964">
        <ele>128.7</ele>
        <time>2020-10-22T07:53:24.000Z</time>
      </trkpt>
      <trkpt lat="49.22621" lon="0.07969">
        <ele>128.8</ele>
        <time>2020-10-22T07:53:38.000Z</time>
      </trkpt>
      <trkpt lat="49.22635" lon="0.07971">
        <ele>128.4</ele>
        <time>2020-10-22T07:53:48.000Z</time>
      </trkpt>
      <trkpt lat="49.22649" lon="0.07976">
        <ele>128.7</ele>
        <time>2020-10-22T07:54:03.000Z</time>
      </trkpt>
      <trkpt lat="49.2266" lon="0.07988">
        <ele>129.1</ele>
        <time>2020-10-22T07:54:16.000Z</time>
      </trkpt>
      <trkpt lat="49.22675" lon="0.07983">
        <ele>129.3</ele>
        <time>2020-10-22T07:54:28.000Z</time>
      </trkpt>
      <trkpt lat="49.22689" lon="0.07983">
        <ele>129.3</ele>
        <time>2020-10-22T07:54:41.000Z</time>
      </trkpt>
      <trkpt lat="49.22702" lon="0.07987">
        <ele>129.2</ele>
        <time>2020-10-22T07:54:56.000Z</time>
      </trkpt>
      <trkpt lat="49.22716" lon="0.07978">
        <ele>129.8</ele>
        <time>2020-10-22T07:55:08.000Z</time>
      </trkpt>
      <trkpt lat="49.2273" lon="0.07979">
        <ele>130.9</ele>
        <time>2020-10-22T07:55:23.000Z</time>
      </trkpt>
      <trkpt lat="49.22745" lon="0.07983">
        <ele>131</ele>
        <time>2020-10-22T07:55:36.000Z</time>
      </trkpt>
      <trkpt lat="49.22747" lon="0.08005">
        <ele>130.7</ele>
        <time>2020-10-22T07:55:53.000Z</time>
      </trkpt>
      <trkpt lat="49.22751" lon="0.08026">
        <ele>132.3</ele>
        <time>2020-10-22T07:56:08.000Z</time>
      </trkpt>
      <trkpt lat="49.22753" lon="0.08047">
        <ele>133</ele>
        <time>2020-10-22T07:56:23.000Z</time>
      </trkpt>
      <trkpt lat="49.22756" lon="0.08068">
        <ele>134</ele>
        <time>2020-10-22T07:56:38.000Z</time>
      </trkpt>
      <trkpt lat="49.22755" lon="0.08089">
        <ele>136.2</ele>
        <time>2020-10-22T07:56:53.000Z</time>
      </trkpt>
      <trkpt lat="49.22757" lon="0.0811">
        <ele>136.7</ele>
        <time>2020-10-22T07:57:06.000Z</time>
      </trkpt>
      <trkpt lat="49.22757" lon="0.08131">
        <ele>136.6</ele>
        <time>2020-10-22T07:57:18.000Z</time>
      </trkpt>
      <trkpt lat="49.22758" lon="0.08152">
        <ele>137.5</ele>
        <time>2020-10-22T07:57:36.000Z</time>
      </trkpt>
      <trkpt lat="49.22757" lon="0.08174">
        <ele>137.7</ele>
        <time>2020-10-22T07:57:52.000Z</time>
      </trkpt>
      <trkpt lat="49.22759" lon="0.08198">
        <ele>137.6</ele>
        <time>2020-10-22T07:58:04.000Z</time>
      </trkpt>
      <trkpt lat="49.22759" lon="0.08219">
        <ele>139.3</ele>
        <time>2020-10-22T07:58:16.000Z</time>
      </trkpt>
      <trkpt lat="49.22756" lon="0.08239">
        <ele>140.9</ele>
        <time>2020-10-22T07:58:28.000Z</time>
      </trkpt>
      <trkpt lat="49.22755" lon="0.08262">
        <ele>141.8</ele>
        <time>2020-10-22T07:58:41.000Z</time>
      </trkpt>
      <trkpt lat="49.22751" lon="0.08282">
        <ele>142.3</ele>
        <time>2020-10-22T07:58:53.000Z</time>
      </trkpt>
      <trkpt lat="49.22753" lon="0.08304">
        <ele>142.7</ele>
        <time>2020-10-22T07:59:06.000Z</time>
      </trkpt>
      <trkpt lat="49.22754" lon="0.08327">
        <ele>142.9</ele>
        <time>2020-10-22T07:59:18.000Z</time>
      </trkpt>
      <trkpt lat="49.22755" lon="0.08348">
        <ele>142.8</ele>
        <time>2020-10-22T07:59:30.000Z</time>
      </trkpt>
      <trkpt lat="49.22754" lon="0.08369">
        <ele>143.2</ele>
        <time>2020-10-22T07:59:42.000Z</time>
      </trkpt>
      <trkpt lat="49.22747" lon="0.08388">
        <ele>143.3</ele>
        <time>2020-10-22T07:59:57.000Z</time>
      </trkpt>
      <trkpt lat="49.22738" lon="0.08406">
        <ele>142.9</ele>
        <time>2020-10-22T08:00:12.000Z</time>
      </trkpt>
      <trkpt lat="49.22731" lon="0.08424">
        <ele>142.9</ele>
        <time>2020-10-22T08:00:25.000Z</time>
      </trkpt>
      <trkpt lat="49.22719" lon="0.08442">
        <ele>142</ele>
        <time>2020-10-22T08:00:38.000Z</time>
      </trkpt>
      <trkpt lat="49.22715" lon="0.08463">
        <ele>140.1</ele>
        <time>2020-10-22T08:02:22.000Z</time>
      </trkpt>
      <trkpt lat="49.22707" lon="0.0848">
        <ele>140</ele>
        <time>2020-10-22T08:03:52.000Z</time>
      </trkpt>
      <trkpt lat="49.227" lon="0.08499">
        <ele>139.2</ele>
        <time>2020-10-22T08:04:07.000Z</time>
      </trkpt>
      <trkpt lat="49.22694" lon="0.08517">
        <ele>139.1</ele>
        <time>2020-10-22T08:04:22.000Z</time>
      </trkpt>
      <trkpt lat="49.22691" lon="0.08538">
        <ele>139.2</ele>
        <time>2020-10-22T08:04:34.000Z</time>
      </trkpt>
      <trkpt lat="49.22686" lon="0.08558">
        <ele>139.3</ele>
        <time>2020-10-22T08:04:45.000Z</time>
      </trkpt>
      <trkpt lat="49.22684" lon="0.08581">
        <ele>138.3</ele>
        <time>2020-10-22T08:04:58.000Z</time>
      </trkpt>
      <trkpt lat="49.22682" lon="0.08602">
        <ele>138.6</ele>
        <time>2020-10-22T08:05:10.000Z</time>
      </trkpt>
      <trkpt lat="49.22679" lon="0.08622">
        <ele>138.3</ele>
        <time>2020-10-22T08:05:22.000Z</time>
      </trkpt>
      <trkpt lat="49.22677" lon="0.08643">
        <ele>137.5</ele>
        <time>2020-10-22T08:05:34.000Z</time>
      </trkpt>
      <trkpt lat="49.22673" lon="0.08665">
        <ele>137.5</ele>
        <time>2020-10-22T08:05:47.000Z</time>
      </trkpt>
      <trkpt lat="49.22671" lon="0.08685">
        <ele>137.5</ele>
        <time>2020-10-22T08:05:56.000Z</time>
      </trkpt>
      <trkpt lat="49.22666" lon="0.08705">
        <ele>137.4</ele>
        <time>2020-10-22T08:06:06.000Z</time>
      </trkpt>
      <trkpt lat="49.22664" lon="0.08726">
        <ele>136.6</ele>
        <time>2020-10-22T08:06:18.000Z</time>
      </trkpt>
      <trkpt lat="49.22662" lon="0.08747">
        <ele>136.3</ele>
        <time>2020-10-22T08:06:30.000Z</time>
      </trkpt>
      <trkpt lat="49.22662" lon="0.08769">
        <ele>135.5</ele>
        <time>2020-10-22T08:06:42.000Z</time>
      </trkpt>
      <trkpt lat="49.2266" lon="0.08791">
        <ele>134.6</ele>
        <time>2020-10-22T08:06:54.000Z</time>
      </trkpt>
      <trkpt lat="49.22658" lon="0.08812">
        <ele>134.4</ele>
        <time>2020-10-22T08:07:06.000Z</time>
      </trkpt>
      <trkpt lat="49.22647" lon="0.08824">
        <ele>134.1</ele>
        <time>2020-10-22T08:07:18.000Z</time>
      </trkpt>
      <trkpt lat="49.22633" lon="0.08827">
        <ele>133.1</ele>
        <time>2020-10-22T08:07:41.000Z</time>
      </trkpt>
      <trkpt lat="49.22619" lon="0.08821">
        <ele>133</ele>
        <time>2020-10-22T08:07:59.000Z</time>
      </trkpt>
      <trkpt lat="49.22604" lon="0.08819">
        <ele>133.9</ele>
        <time>2020-10-22T08:08:11.000Z</time>
      </trkpt>
      <trkpt lat="49.2259" lon="0.08818">
        <ele>134.3</ele>
        <time>2020-10-22T08:08:23.000Z</time>
      </trkpt>
      <trkpt lat="49.22577" lon="0.0882">
        <ele>133.6</ele>
        <time>2020-10-22T08:08:36.000Z</time>
      </trkpt>
      <trkpt lat="49.22562" lon="0.08822">
        <ele>134.4</ele>
        <time>2020-10-22T08:08:50.000Z</time>
      </trkpt>
      <trkpt lat="49.22548" lon="0.08826">
        <ele>134.8</ele>
        <time>2020-10-22T08:09:03.000Z</time>
      </trkpt>
      <trkpt lat="49.22534" lon="0.08825">
        <ele>134.8</ele>
        <time>2020-10-22T08:09:16.000Z</time>
      </trkpt>
      <trkpt lat="49.2252" lon="0.08826">
        <ele>133.8</ele>
        <time>2020-10-22T08:09:27.000Z</time>
      </trkpt>
      <trkpt lat="49.22505" lon="0.08829">
        <ele>134</ele>
        <time>2020-10-22T08:09:40.000Z</time>
      </trkpt>
      <trkpt lat="49.22491" lon="0.08831">
        <ele>134.1</ele>
        <time>2020-10-22T08:09:51.000Z</time>
      </trkpt>
      <trkpt lat="49.22477" lon="0.0883">
        <ele>133.8</ele>
        <time>2020-10-22T08:10:03.000Z</time>
      </trkpt>
      <trkpt lat="49.22464" lon="0.08831">
        <ele>134</ele>
        <time>2020-10-22T08:10:17.000Z</time>
      </trkpt>
      <trkpt lat="49.2245" lon="0.08829">
        <ele>133.8</ele>
        <time>2020-10-22T08:10:31.000Z</time>
      </trkpt>
      <trkpt lat="49.22435" lon="0.08829">
        <ele>133.3</ele>
        <time>2020-10-22T08:10:47.000Z</time>
      </trkpt>
      <trkpt lat="49.22422" lon="0.08822">
        <ele>133.3</ele>
        <time>2020-10-22T08:10:59.000Z</time>
      </trkpt>
      <trkpt lat="49.22409" lon="0.08817">
        <ele>133</ele>
        <time>2020-10-22T08:11:11.000Z</time>
      </trkpt>
      <trkpt lat="49.22397" lon="0.0881">
        <ele>132.7</ele>
        <time>2020-10-22T08:11:24.000Z</time>
      </trkpt>
      <trkpt lat="49.22384" lon="0.08799">
        <ele>132.8</ele>
        <time>2020-10-22T08:11:38.000Z</time>
      </trkpt>
      <trkpt lat="49.22372" lon="0.08791">
        <ele>132.6</ele>
        <time>2020-10-22T08:11:52.000Z</time>
      </trkpt>
      <trkpt lat="49.2236" lon="0.0878">
        <ele>131.7</ele>
        <time>2020-10-22T08:12:06.000Z</time>
      </trkpt>
      <trkpt lat="49.22348" lon="0.08769">
        <ele>131.7</ele>
        <time>2020-10-22T08:12:23.000Z</time>
      </trkpt>
      <trkpt lat="49.22336" lon="0.08757">
        <ele>131.5</ele>
        <time>2020-10-22T08:12:36.000Z</time>
      </trkpt>
      <trkpt lat="49.22323" lon="0.08749">
        <ele>130.9</ele>
        <time>2020-10-22T08:12:49.000Z</time>
      </trkpt>
      <trkpt lat="49.22312" lon="0.08738">
        <ele>130.7</ele>
        <time>2020-10-22T08:13:01.000Z</time>
      </trkpt>
      <trkpt lat="49.22298" lon="0.08732">
        <ele>130.5</ele>
        <time>2020-10-22T08:13:13.000Z</time>
      </trkpt>
      <trkpt lat="49.22285" lon="0.08725">
        <ele>130.2</ele>
        <time>2020-10-22T08:13:29.000Z</time>
      </trkpt>
      <trkpt lat="49.2227" lon="0.08724">
        <ele>130.1</ele>
        <time>2020-10-22T08:13:44.000Z</time>
      </trkpt>
      <trkpt lat="49.22256" lon="0.08719">
        <ele>130.2</ele>
        <time>2020-10-22T08:13:56.000Z</time>
      </trkpt>
      <trkpt lat="49.22242" lon="0.08717">
        <ele>130.5</ele>
        <time>2020-10-22T08:14:10.000Z</time>
      </trkpt>
      <trkpt lat="49.2223" lon="0.08708">
        <ele>129.7</ele>
        <time>2020-10-22T08:14:25.000Z</time>
      </trkpt>
      <trkpt lat="49.22218" lon="0.08696">
        <ele>129.8</ele>
        <time>2020-10-22T08:14:37.000Z</time>
      </trkpt>
      <trkpt lat="49.22207" lon="0.08682">
        <ele>129.8</ele>
        <time>2020-10-22T08:14:51.000Z</time>
      </trkpt>
      <trkpt lat="49.22194" lon="0.08673">
        <ele>129.4</ele>
        <time>2020-10-22T08:15:06.000Z</time>
      </trkpt>
      <trkpt lat="49.2218" lon="0.08666">
        <ele>129.5</ele>
        <time>2020-10-22T08:15:14.000Z</time>
      </trkpt>
      <trkpt lat="49.22166" lon="0.08661">
        <ele>129</ele>
        <time>2020-10-22T08:15:27.000Z</time>
      </trkpt>
      <trkpt lat="49.22153" lon="0.08654">
        <ele>128.8</ele>
        <time>2020-10-22T08:15:42.000Z</time>
      </trkpt>
      <trkpt lat="49.22138" lon="0.08651">
        <ele>128.2</ele>
        <time>2020-10-22T08:15:53.000Z</time>
      </trkpt>
      <trkpt lat="49.22124" lon="0.08654">
        <ele>128.5</ele>
        <time>2020-10-22T08:16:00.000Z</time>
      </trkpt>
      <trkpt lat="49.22111" lon="0.08648">
        <ele>128.2</ele>
        <time>2020-10-22T08:16:14.000Z</time>
      </trkpt>
      <trkpt lat="49.22096" lon="0.08645">
        <ele>127.6</ele>
        <time>2020-10-22T08:16:27.000Z</time>
      </trkpt>
      <trkpt lat="49.22082" lon="0.0864">
        <ele>127.5</ele>
        <time>2020-10-22T08:16:37.000Z</time>
      </trkpt>
      <trkpt lat="49.22069" lon="0.08636">
        <ele>127.2</ele>
        <time>2020-10-22T08:16:48.000Z</time>
      </trkpt>
      <trkpt lat="49.22056" lon="0.08626">
        <ele>126.9</ele>
        <time>2020-10-22T08:17:00.000Z</time>
      </trkpt>
      <trkpt lat="49.22042" lon="0.08618">
        <ele>126.2</ele>
        <time>2020-10-22T08:17:13.000Z</time>
      </trkpt>
      <trkpt lat="49.2203" lon="0.08607">
        <ele>126.5</ele>
        <time>2020-10-22T08:17:24.000Z</time>
      </trkpt>
      <trkpt lat="49.22018" lon="0.08599">
        <ele>126.5</ele>
        <time>2020-10-22T08:17:38.000Z</time>
      </trkpt>
      <trkpt lat="49.22004" lon="0.0859">
        <ele>126.5</ele>
        <time>2020-10-22T08:17:50.000Z</time>
      </trkpt>
      <trkpt lat="49.21991" lon="0.08583">
        <ele>125.8</ele>
        <time>2020-10-22T08:18:02.000Z</time>
      </trkpt>
      <trkpt lat="49.21978" lon="0.08576">
        <ele>126</ele>
        <time>2020-10-22T08:18:15.000Z</time>
      </trkpt>
      <trkpt lat="49.21965" lon="0.08566">
        <ele>125.4</ele>
        <time>2020-10-22T08:18:27.000Z</time>
      </trkpt>
      <trkpt lat="49.21953" lon="0.08553">
        <ele>124.9</ele>
        <time>2020-10-22T08:18:40.000Z</time>
      </trkpt>
      <trkpt lat="49.2194" lon="0.08544">
        <ele>125</ele>
        <time>2020-10-22T08:18:52.000Z</time>
      </trkpt>
      <trkpt lat="49.21928" lon="0.08533">
        <ele>124.3</ele>
        <time>2020-10-22T08:19:05.000Z</time>
      </trkpt>
      <trkpt lat="49.21916" lon="0.08523">
        <ele>123.9</ele>
        <time>2020-10-22T08:19:17.000Z</time>
      </trkpt>
      <trkpt lat="49.21903" lon="0.08513">
        <ele>124</ele>
        <time>2020-10-22T08:19:29.000Z</time>
      </trkpt>
      <trkpt lat="49.21892" lon="0.08502">
        <ele>123.9</ele>
        <time>2020-10-22T08:19:41.000Z</time>
      </trkpt>
      <trkpt lat="49.2188" lon="0.0849">
        <ele>123.8</ele>
        <time>2020-10-22T08:19:54.000Z</time>
      </trkpt>
      <trkpt lat="49.21869" lon="0.08474">
        <ele>121</ele>
        <time>2020-10-22T08:20:07.000Z</time>
      </trkpt>
      <trkpt lat="49.21858" lon="0.0846">
        <ele>119.8</ele>
        <time>2020-10-22T08:20:20.000Z</time>
      </trkpt>
      <trkpt lat="49.21847" lon="0.08447">
        <ele>120.5</ele>
        <time>2020-10-22T08:20:33.000Z</time>
      </trkpt>
      <trkpt lat="49.21836" lon="0.08436">
        <ele>120.2</ele>
        <time>2020-10-22T08:20:44.000Z</time>
      </trkpt>
      <trkpt lat="49.21825" lon="0.08424">
        <ele>119.8</ele>
        <time>2020-10-22T08:20:55.000Z</time>
      </trkpt>
      <trkpt lat="49.21812" lon="0.08415">
        <ele>120.9</ele>
        <time>2020-10-22T08:21:08.000Z</time>
      </trkpt>
      <trkpt lat="49.21798" lon="0.08406">
        <ele>120.8</ele>
        <time>2020-10-22T08:21:20.000Z</time>
      </trkpt>
      <trkpt lat="49.21785" lon="0.08398">
        <ele>120.8</ele>
        <time>2020-10-22T08:21:32.000Z</time>
      </trkpt>
      <trkpt lat="49.2177" lon="0.08392">
        <ele>120.3</ele>
        <time>2020-10-22T08:21:45.000Z</time>
      </trkpt>
      <trkpt lat="49.21757" lon="0.08385">
        <ele>119.7</ele>
        <time>2020-10-22T08:21:59.000Z</time>
      </trkpt>
      <trkpt lat="49.21743" lon="0.08382">
        <ele>119.6</ele>
        <time>2020-10-22T08:22:09.000Z</time>
      </trkpt>
      <trkpt lat="49.21729" lon="0.08377">
        <ele>119.5</ele>
        <time>2020-10-22T08:22:22.000Z</time>
      </trkpt>
      <trkpt lat="49.21718" lon="0.08365">
        <ele>119.1</ele>
        <time>2020-10-22T08:22:36.000Z</time>
      </trkpt>
      <trkpt lat="49.21705" lon="0.08357">
        <ele>118.7</ele>
        <time>2020-10-22T08:22:50.000Z</time>
      </trkpt>
      <trkpt lat="49.21692" lon="0.08348">
        <ele>118.7</ele>
        <time>2020-10-22T08:22:59.000Z</time>
      </trkpt>
      <trkpt lat="49.21679" lon="0.08341">
        <ele>118.6</ele>
        <time>2020-10-22T08:23:10.000Z</time>
      </trkpt>
      <trkpt lat="49.21666" lon="0.08333">
        <ele>118.4</ele>
        <time>2020-10-22T08:23:26.000Z</time>
      </trkpt>
      <trkpt lat="49.21652" lon="0.08326">
        <ele>116.7</ele>
        <time>2020-10-22T08:23:41.000Z</time>
      </trkpt>
      <trkpt lat="49.21639" lon="0.0832">
        <ele>117.1</ele>
        <time>2020-10-22T08:25:15.000Z</time>
      </trkpt>
      <trkpt lat="49.21626" lon="0.08316">
        <ele>114.1</ele>
        <time>2020-10-22T08:39:49.000Z</time>
      </trkpt>
      <trkpt lat="49.21613" lon="0.08306">
        <ele>114</ele>
        <time>2020-10-22T08:40:05.000Z</time>
      </trkpt>
      <trkpt lat="49.21599" lon="0.08298">
        <ele>115.4</ele>
        <time>2020-10-22T08:40:19.000Z</time>
      </trkpt>
      <trkpt lat="49.21586" lon="0.08293">
        <ele>114.9</ele>
        <time>2020-10-22T08:40:28.000Z</time>
      </trkpt>
      <trkpt lat="49.21572" lon="0.0829">
        <ele>114.8</ele>
        <time>2020-10-22T08:40:38.000Z</time>
      </trkpt>
      <trkpt lat="49.21558" lon="0.08287">
        <ele>114.9</ele>
        <time>2020-10-22T08:40:49.000Z</time>
      </trkpt>
      <trkpt lat="49.21544" lon="0.08281">
        <ele>114.1</ele>
        <time>2020-10-22T08:41:01.000Z</time>
      </trkpt>
      <trkpt lat="49.21531" lon="0.08274">
        <ele>113.8</ele>
        <time>2020-10-22T08:41:12.000Z</time>
      </trkpt>
      <trkpt lat="49.21518" lon="0.08266">
        <ele>113.5</ele>
        <time>2020-10-22T08:41:24.000Z</time>
      </trkpt>
      <trkpt lat="49.21504" lon="0.08259">
        <ele>113</ele>
        <time>2020-10-22T08:41:35.000Z</time>
      </trkpt>
      <trkpt lat="49.21491" lon="0.08254">
        <ele>112.9</ele>
        <time>2020-10-22T08:41:48.000Z</time>
      </trkpt>
      <trkpt lat="49.21478" lon="0.08246">
        <ele>112.6</ele>
        <time>2020-10-22T08:41:59.000Z</time>
      </trkpt>
      <trkpt lat="49.21464" lon="0.08241">
        <ele>112.2</ele>
        <time>2020-10-22T08:42:11.000Z</time>
      </trkpt>
      <trkpt lat="49.21451" lon="0.08236">
        <ele>111.5</ele>
        <time>2020-10-22T08:42:22.000Z</time>
      </trkpt>
      <trkpt lat="49.21437" lon="0.08231">
        <ele>110.7</ele>
        <time>2020-10-22T08:42:35.000Z</time>
      </trkpt>
      <trkpt lat="49.21424" lon="0.08228">
        <ele>111</ele>
        <time>2020-10-22T08:42:46.000Z</time>
      </trkpt>
      <trkpt lat="49.2141" lon="0.08223">
        <ele>111</ele>
        <time>2020-10-22T08:42:58.000Z</time>
      </trkpt>
      <trkpt lat="49.21396" lon="0.08222">
        <ele>110.2</ele>
        <time>2020-10-22T08:43:09.000Z</time>
      </trkpt>
      <trkpt lat="49.21383" lon="0.08217">
        <ele>109.8</ele>
        <time>2020-10-22T08:43:21.000Z</time>
      </trkpt>
      <trkpt lat="49.21369" lon="0.08217">
        <ele>109.5</ele>
        <time>2020-10-22T08:43:33.000Z</time>
      </trkpt>
      <trkpt lat="49.21356" lon="0.08214">
        <ele>109.7</ele>
        <time>2020-10-22T08:43:44.000Z</time>
      </trkpt>
      <trkpt lat="49.21341" lon="0.08208">
        <ele>109.9</ele>
        <time>2020-10-22T08:43:55.000Z</time>
      </trkpt>
      <trkpt lat="49.21327" lon="0.08204">
        <ele>109.6</ele>
        <time>2020-10-22T08:44:07.000Z</time>
      </trkpt>
      <trkpt lat="49.21313" lon="0.08201">
        <ele>109</ele>
        <time>2020-10-22T08:44:19.000Z</time>
      </trkpt>
      <trkpt lat="49.21299" lon="0.08196">
        <ele>108.7</ele>
        <time>2020-10-22T08:44:30.000Z</time>
      </trkpt>
      <trkpt lat="49.21285" lon="0.08194">
        <ele>108.4</ele>
        <time>2020-10-22T08:44:44.000Z</time>
      </trkpt>
      <trkpt lat="49.21271" lon="0.08192">
        <ele>108.4</ele>
        <time>2020-10-22T08:44:56.000Z</time>
      </trkpt>
      <trkpt lat="49.21257" lon="0.08192">
        <ele>108.6</ele>
        <time>2020-10-22T08:45:08.000Z</time>
      </trkpt>
      <trkpt lat="49.21242" lon="0.08191">
        <ele>108.8</ele>
        <time>2020-10-22T08:45:20.000Z</time>
      </trkpt>
      <trkpt lat="49.21228" lon="0.08192">
        <ele>108.8</ele>
        <time>2020-10-22T08:45:31.000Z</time>
      </trkpt>
      <trkpt lat="49.21213" lon="0.08193">
        <ele>108.3</ele>
        <time>2020-10-22T08:45:44.000Z</time>
      </trkpt>
      <trkpt lat="49.212" lon="0.08196">
        <ele>108.2</ele>
        <time>2020-10-22T08:45:56.000Z</time>
      </trkpt>
      <trkpt lat="49.21186" lon="0.08196">
        <ele>106.4</ele>
        <time>2020-10-22T08:46:07.000Z</time>
      </trkpt>
      <trkpt lat="49.21172" lon="0.08195">
        <ele>106.1</ele>
        <time>2020-10-22T08:46:20.000Z</time>
      </trkpt>
      <trkpt lat="49.21158" lon="0.08195">
        <ele>104.7</ele>
        <time>2020-10-22T08:46:31.000Z</time>
      </trkpt>
      <trkpt lat="49.21145" lon="0.08197">
        <ele>103.6</ele>
        <time>2020-10-22T08:46:44.000Z</time>
      </trkpt>
      <trkpt lat="49.2113" lon="0.082">
        <ele>103</ele>
        <time>2020-10-22T08:46:58.000Z</time>
      </trkpt>
      <trkpt lat="49.21117" lon="0.0821">
        <ele>102.4</ele>
        <time>2020-10-22T08:47:12.000Z</time>
      </trkpt>
      <trkpt lat="49.21102" lon="0.08212">
        <ele>100.9</ele>
        <time>2020-10-22T08:47:24.000Z</time>
      </trkpt>
      <trkpt lat="49.21088" lon="0.08208">
        <ele>100.2</ele>
        <time>2020-10-22T08:47:38.000Z</time>
      </trkpt>
      <trkpt lat="49.21074" lon="0.08203">
        <ele>99.7</ele>
        <time>2020-10-22T08:47:51.000Z</time>
      </trkpt>
      <trkpt lat="49.2106" lon="0.08201">
        <ele>98.7</ele>
        <time>2020-10-22T08:48:03.000Z</time>
      </trkpt>
      <trkpt lat="49.21046" lon="0.08199">
        <ele>98.1</ele>
        <time>2020-10-22T08:48:16.000Z</time>
      </trkpt>
      <trkpt lat="49.21033" lon="0.08198">
        <ele>97.8</ele>
        <time>2020-10-22T08:48:29.000Z</time>
      </trkpt>
      <trkpt lat="49.2102" lon="0.08189">
        <ele>97.2</ele>
        <time>2020-10-22T08:48:41.000Z</time>
      </trkpt>
      <trkpt lat="49.21006" lon="0.08183">
        <ele>96.3</ele>
        <time>2020-10-22T08:48:54.000Z</time>
      </trkpt>
      <trkpt lat="49.20993" lon="0.08179">
        <ele>94.6</ele>
        <time>2020-10-22T08:49:06.000Z</time>
      </trkpt>
      <trkpt lat="49.20979" lon="0.08171">
        <ele>94.6</ele>
        <time>2020-10-22T08:49:17.000Z</time>
      </trkpt>
      <trkpt lat="49.20966" lon="0.08168">
        <ele>93.7</ele>
        <time>2020-10-22T08:49:29.000Z</time>
      </trkpt>
      <trkpt lat="49.20952" lon="0.08166">
        <ele>92.3</ele>
        <time>2020-10-22T08:49:42.000Z</time>
      </trkpt>
      <trkpt lat="49.20937" lon="0.08165">
        <ele>91</ele>
        <time>2020-10-22T08:49:56.000Z</time>
      </trkpt>
      <trkpt lat="49.20923" lon="0.08166">
        <ele>90.2</ele>
        <time>2020-10-22T08:50:08.000Z</time>
      </trkpt>
      <trkpt lat="49.20909" lon="0.08164">
        <ele>89.3</ele>
        <time>2020-10-22T08:50:21.000Z</time>
      </trkpt>
      <trkpt lat="49.20895" lon="0.08161">
        <ele>88.3</ele>
        <time>2020-10-22T08:50:34.000Z</time>
      </trkpt>
      <trkpt lat="49.20882" lon="0.08155">
        <ele>87.3</ele>
        <time>2020-10-22T08:50:46.000Z</time>
      </trkpt>
      <trkpt lat="49.20867" lon="0.08153">
        <ele>87</ele>
        <time>2020-10-22T08:50:58.000Z</time>
      </trkpt>
      <trkpt lat="49.20853" lon="0.08151">
        <ele>86.6</ele>
        <time>2020-10-22T08:51:11.000Z</time>
      </trkpt>
      <trkpt lat="49.20839" lon="0.08146">
        <ele>86.6</ele>
        <time>2020-10-22T08:51:23.000Z</time>
      </trkpt>
      <trkpt lat="49.20825" lon="0.08142">
        <ele>86</ele>
        <time>2020-10-22T08:51:35.000Z</time>
      </trkpt>
      <trkpt lat="49.20812" lon="0.08136">
        <ele>85.5</ele>
        <time>2020-10-22T08:51:48.000Z</time>
      </trkpt>
      <trkpt lat="49.20798" lon="0.08126">
        <ele>85.4</ele>
        <time>2020-10-22T08:52:03.000Z</time>
      </trkpt>
      <trkpt lat="49.20785" lon="0.0812">
        <ele>85.1</ele>
        <time>2020-10-22T08:52:12.000Z</time>
      </trkpt>
      <trkpt lat="49.20773" lon="0.08108">
        <ele>85.2</ele>
        <time>2020-10-22T08:52:24.000Z</time>
      </trkpt>
      <trkpt lat="49.2076" lon="0.08102">
        <ele>83.7</ele>
        <time>2020-10-22T08:52:35.000Z</time>
      </trkpt>
      <trkpt lat="49.20746" lon="0.08098">
        <ele>83.3</ele>
        <time>2020-10-22T08:52:47.000Z</time>
      </trkpt>
      <trkpt lat="49.20732" lon="0.08094">
        <ele>82.2</ele>
        <time>2020-10-22T08:52:58.000Z</time>
      </trkpt>
      <trkpt lat="49.20718" lon="0.08094">
        <ele>80.8</ele>
        <time>2020-10-22T08:53:11.000Z</time>
      </trkpt>
      <trkpt lat="49.20704" lon="0.08086">
        <ele>80.2</ele>
        <time>2020-10-22T08:53:22.000Z</time>
      </trkpt>
      <trkpt lat="49.2069" lon="0.08083">
        <ele>78.5</ele>
        <time>2020-10-22T08:53:35.000Z</time>
      </trkpt>
      <trkpt lat="49.20675" lon="0.08083">
        <ele>76.8</ele>
        <time>2020-10-22T08:53:48.000Z</time>
      </trkpt>
      <trkpt lat="49.20662" lon="0.08086">
        <ele>74.8</ele>
        <time>2020-10-22T08:54:02.000Z</time>
      </trkpt>
      <trkpt lat="49.20648" lon="0.08089">
        <ele>71.6</ele>
        <time>2020-10-22T08:54:15.000Z</time>
      </trkpt>
      <trkpt lat="49.20648" lon="0.0811">
        <ele>71.1</ele>
        <time>2020-10-22T08:54:26.000Z</time>
      </trkpt>
      <trkpt lat="49.2064" lon="0.08129">
        <ele>69.8</ele>
        <time>2020-10-22T08:54:38.000Z</time>
      </trkpt>
      <trkpt lat="49.20633" lon="0.08146">
        <ele>69.1</ele>
        <time>2020-10-22T08:54:48.000Z</time>
      </trkpt>
      <trkpt lat="49.20625" lon="0.08163">
        <ele>67.9</ele>
        <time>2020-10-22T08:54:59.000Z</time>
      </trkpt>
      <trkpt lat="49.20616" lon="0.08178">
        <ele>68.5</ele>
        <time>2020-10-22T08:55:11.000Z</time>
      </trkpt>
      <trkpt lat="49.20608" lon="0.08196">
        <ele>68.4</ele>
        <time>2020-10-22T08:55:23.000Z</time>
      </trkpt>
      <trkpt lat="49.20602" lon="0.08215">
        <ele>67.3</ele>
        <time>2020-10-22T08:55:34.000Z</time>
      </trkpt>
      <trkpt lat="49.20593" lon="0.08231">
        <ele>69.3</ele>
        <time>2020-10-22T08:55:45.000Z</time>
      </trkpt>
      <trkpt lat="49.20584" lon="0.08248">
        <ele>69.2</ele>
        <time>2020-10-22T08:55:57.000Z</time>
      </trkpt>
      <trkpt lat="49.20577" lon="0.08267">
        <ele>70.5</ele>
        <time>2020-10-22T08:56:11.000Z</time>
      </trkpt>
      <trkpt lat="49.20579" lon="0.08289">
        <ele>72.1</ele>
        <time>2020-10-22T08:56:25.000Z</time>
      </trkpt>
      <trkpt lat="49.2058" lon="0.0831">
        <ele>72.7</ele>
        <time>2020-10-22T08:56:36.000Z</time>
      </trkpt>
      <trkpt lat="49.20584" lon="0.08333">
        <ele>73.4</ele>
        <time>2020-10-22T08:56:49.000Z</time>
      </trkpt>
      <trkpt lat="49.20592" lon="0.08351">
        <ele>73.9</ele>
        <time>2020-10-22T08:56:59.000Z</time>
      </trkpt>
      <trkpt lat="49.20597" lon="0.0837">
        <ele>74.8</ele>
        <time>2020-10-22T08:57:11.000Z</time>
      </trkpt>
      <trkpt lat="49.20604" lon="0.08389">
        <ele>73.3</ele>
        <time>2020-10-22T08:57:26.000Z</time>
      </trkpt>
      <trkpt lat="49.20607" lon="0.08409">
        <ele>72.5</ele>
        <time>2020-10-22T08:57:42.000Z</time>
      </trkpt>
      <trkpt lat="49.20618" lon="0.08424">
        <ele>71.5</ele>
        <time>2020-10-22T08:57:51.000Z</time>
      </trkpt>
      <trkpt lat="49.20629" lon="0.0844">
        <ele>71.8</ele>
        <time>2020-10-22T08:58:01.000Z</time>
      </trkpt>
      <trkpt lat="49.2064" lon="0.08452">
        <ele>71.8</ele>
        <time>2020-10-22T08:58:12.000Z</time>
      </trkpt>
      <trkpt lat="49.2065" lon="0.08468">
        <ele>71.7</ele>
        <time>2020-10-22T08:58:25.000Z</time>
      </trkpt>
      <trkpt lat="49.20652" lon="0.08489">
        <ele>72.5</ele>
        <time>2020-10-22T08:58:41.000Z</time>
      </trkpt>
      <trkpt lat="49.20656" lon="0.08509">
        <ele>73</ele>
        <time>2020-10-22T08:58:54.000Z</time>
      </trkpt>
      <trkpt lat="49.20666" lon="0.08526">
        <ele>74.4</ele>
        <time>2020-10-22T08:59:06.000Z</time>
      </trkpt>
      <trkpt lat="49.20677" lon="0.08539">
        <ele>74.1</ele>
        <time>2020-10-22T08:59:18.000Z</time>
      </trkpt>
      <trkpt lat="49.20688" lon="0.0855">
        <ele>76.2</ele>
        <time>2020-10-22T08:59:29.000Z</time>
      </trkpt>
      <trkpt lat="49.20699" lon="0.08564">
        <ele>77.4</ele>
        <time>2020-10-22T08:59:41.000Z</time>
      </trkpt>
      <trkpt lat="49.2071" lon="0.08578">
        <ele>77.1</ele>
        <time>2020-10-22T08:59:53.000Z</time>
      </trkpt>
      <trkpt lat="49.20721" lon="0.08593">
        <ele>77</ele>
        <time>2020-10-22T09:00:05.000Z</time>
      </trkpt>
      <trkpt lat="49.20732" lon="0.08606">
        <ele>77.8</ele>
        <time>2020-10-22T09:00:15.000Z</time>
      </trkpt>
      <trkpt lat="49.20742" lon="0.0862">
        <ele>79.5</ele>
        <time>2020-10-22T09:00:27.000Z</time>
      </trkpt>
      <trkpt lat="49.2075" lon="0.0864">
        <ele>80.1</ele>
        <time>2020-10-22T09:00:41.000Z</time>
      </trkpt>
      <trkpt lat="49.20755" lon="0.0866">
        <ele>79.4</ele>
        <time>2020-10-22T09:00:54.000Z</time>
      </trkpt>
      <trkpt lat="49.20761" lon="0.0868">
        <ele>81.3</ele>
        <time>2020-10-22T09:01:03.000Z</time>
      </trkpt>
      <trkpt lat="49.20761" lon="0.08701">
        <ele>81.8</ele>
        <time>2020-10-22T09:01:15.000Z</time>
      </trkpt>
      <trkpt lat="49.20763" lon="0.08723">
        <ele>82.1</ele>
        <time>2020-10-22T09:01:26.000Z</time>
      </trkpt>
      <trkpt lat="49.20765" lon="0.08743">
        <ele>83</ele>
        <time>2020-10-22T09:01:38.000Z</time>
      </trkpt>
      <trkpt lat="49.20771" lon="0.08764">
        <ele>82.5</ele>
        <time>2020-10-22T09:01:49.000Z</time>
      </trkpt>
      <trkpt lat="49.20777" lon="0.08783">
        <ele>83.9</ele>
        <time>2020-10-22T09:02:00.000Z</time>
      </trkpt>
      <trkpt lat="49.20783" lon="0.08801">
        <ele>85.3</ele>
        <time>2020-10-22T09:02:13.000Z</time>
      </trkpt>
      <trkpt lat="49.20792" lon="0.08819">
        <ele>85.5</ele>
        <time>2020-10-22T09:02:25.000Z</time>
      </trkpt>
      <trkpt lat="49.208" lon="0.08838">
        <ele>85.1</ele>
        <time>2020-10-22T09:02:35.000Z</time>
      </trkpt>
      <trkpt lat="49.20809" lon="0.08854">
        <ele>84.7</ele>
        <time>2020-10-22T09:02:46.000Z</time>
      </trkpt>
      <trkpt lat="49.20811" lon="0.08876">
        <ele>84.9</ele>
        <time>2020-10-22T09:03:00.000Z</time>
      </trkpt>
      <trkpt lat="49.20819" lon="0.08893">
        <ele>86.2</ele>
        <time>2020-10-22T09:03:10.000Z</time>
      </trkpt>
      <trkpt lat="49.20824" lon="0.08913">
        <ele>87.6</ele>
        <time>2020-10-22T09:03:22.000Z</time>
      </trkpt>
      <trkpt lat="49.20829" lon="0.08932">
        <ele>89.6</ele>
        <time>2020-10-22T09:03:33.000Z</time>
      </trkpt>
      <trkpt lat="49.20836" lon="0.08951">
        <ele>87.5</ele>
        <time>2020-10-22T09:03:48.000Z</time>
      </trkpt>
      <trkpt lat="49.20847" lon="0.08965">
        <ele>87.7</ele>
        <time>2020-10-22T09:04:00.000Z</time>
      </trkpt>
      <trkpt lat="49.20858" lon="0.08978">
        <ele>88.3</ele>
        <time>2020-10-22T09:04:11.000Z</time>
      </trkpt>
      <trkpt lat="49.20867" lon="0.08994">
        <ele>86.9</ele>
        <time>2020-10-22T09:04:21.000Z</time>
      </trkpt>
      <trkpt lat="49.20877" lon="0.09011">
        <ele>87.4</ele>
        <time>2020-10-22T09:04:33.000Z</time>
      </trkpt>
      <trkpt lat="49.20887" lon="0.09026">
        <ele>87.9</ele>
        <time>2020-10-22T09:04:44.000Z</time>
      </trkpt>
      <trkpt lat="49.20896" lon="0.09043">
        <ele>87.7</ele>
        <time>2020-10-22T09:04:57.000Z</time>
      </trkpt>
      <trkpt lat="49.20911" lon="0.09045">
        <ele>86.8</ele>
        <time>2020-10-22T09:05:14.000Z</time>
      </trkpt>
      <trkpt lat="49.20924" lon="0.09046">
        <ele>86.3</ele>
        <time>2020-10-22T09:05:24.000Z</time>
      </trkpt>
      <trkpt lat="49.20939" lon="0.09047">
        <ele>86.5</ele>
        <time>2020-10-22T09:05:36.000Z</time>
      </trkpt>
      <trkpt lat="49.20952" lon="0.09042">
        <ele>88.1</ele>
        <time>2020-10-22T09:05:44.000Z</time>
      </trkpt>
      <trkpt lat="49.20966" lon="0.0904">
        <ele>88.6</ele>
        <time>2020-10-22T09:05:57.000Z</time>
      </trkpt>
      <trkpt lat="49.2098" lon="0.09041">
        <ele>91.1</ele>
        <time>2020-10-22T09:06:13.000Z</time>
      </trkpt>
      <trkpt lat="49.2099" lon="0.09026">
        <ele>93.3</ele>
        <time>2020-10-22T09:06:29.000Z</time>
      </trkpt>
      <trkpt lat="49.20989" lon="0.09004">
        <ele>92.3</ele>
        <time>2020-10-22T09:06:44.000Z</time>
      </trkpt>
      <trkpt lat="49.20989" lon="0.08982">
        <ele>92</ele>
        <time>2020-10-22T09:06:58.000Z</time>
      </trkpt>
      <trkpt lat="49.20988" lon="0.08962">
        <ele>92.1</ele>
        <time>2020-10-22T09:07:14.000Z</time>
      </trkpt>
      <trkpt lat="49.21001" lon="0.08954">
        <ele>92.2</ele>
        <time>2020-10-22T09:07:44.000Z</time>
      </trkpt>
      <trkpt lat="49.21015" lon="0.08956">
        <ele>94.2</ele>
        <time>2020-10-22T09:08:05.000Z</time>
      </trkpt>
      <trkpt lat="49.2103" lon="0.08957">
        <ele>96.4</ele>
        <time>2020-10-22T09:08:21.000Z</time>
      </trkpt>
      <trkpt lat="49.21044" lon="0.08961">
        <ele>98.3</ele>
        <time>2020-10-22T09:08:41.000Z</time>
      </trkpt>
      <trkpt lat="49.21057" lon="0.08965">
        <ele>97.6</ele>
        <time>2020-10-22T09:08:57.000Z</time>
      </trkpt>
      <trkpt lat="49.21071" lon="0.0897">
        <ele>102.5</ele>
        <time>2020-10-22T09:09:17.000Z</time>
      </trkpt>
      <trkpt lat="49.21084" lon="0.08978">
        <ele>104</ele>
        <time>2020-10-22T09:09:35.000Z</time>
      </trkpt>
      <trkpt lat="49.21097" lon="0.08984">
        <ele>104.2</ele>
        <time>2020-10-22T09:09:52.000Z</time>
      </trkpt>
      <trkpt lat="49.2111" lon="0.08991">
        <ele>106.2</ele>
        <time>2020-10-22T09:10:08.000Z</time>
      </trkpt>
      <trkpt lat="49.21124" lon="0.08994">
        <ele>108.4</ele>
        <time>2020-10-22T09:10:29.000Z</time>
      </trkpt>
      <trkpt lat="49.21137" lon="0.08996">
        <ele>109.4</ele>
        <time>2020-10-22T09:10:41.000Z</time>
      </trkpt>
      <trkpt lat="49.21151" lon="0.08999">
        <ele>110.6</ele>
        <time>2020-10-22T09:10:54.000Z</time>
      </trkpt>
      <trkpt lat="49.21164" lon="0.08992">
        <ele>112</ele>
        <time>2020-10-22T09:11:11.000Z</time>
      </trkpt>
      <trkpt lat="49.21176" lon="0.08983">
        <ele>112.8</ele>
        <time>2020-10-22T09:11:28.000Z</time>
      </trkpt>
      <trkpt lat="49.2119" lon="0.0898">
        <ele>116.4</ele>
        <time>2020-10-22T09:11:46.000Z</time>
      </trkpt>
      <trkpt lat="49.21202" lon="0.08969">
        <ele>118.2</ele>
        <time>2020-10-22T09:12:08.000Z</time>
      </trkpt>
      <trkpt lat="49.21214" lon="0.08959">
        <ele>121.2</ele>
        <time>2020-10-22T09:12:23.000Z</time>
      </trkpt>
      <trkpt lat="49.21228" lon="0.08956">
        <ele>121</ele>
        <time>2020-10-22T09:12:37.000Z</time>
      </trkpt>
      <trkpt lat="49.21241" lon="0.08962">
        <ele>121.9</ele>
        <time>2020-10-22T09:12:49.000Z</time>
      </trkpt>
      <trkpt lat="49.21256" lon="0.08963">
        <ele>123</ele>
        <time>2020-10-22T09:13:05.000Z</time>
      </trkpt>
      <trkpt lat="49.21269" lon="0.08961">
        <ele>122.9</ele>
        <time>2020-10-22T09:13:16.000Z</time>
      </trkpt>
      <trkpt lat="49.21283" lon="0.08957">
        <ele>123.2</ele>
        <time>2020-10-22T09:13:28.000Z</time>
      </trkpt>
      <trkpt lat="49.21297" lon="0.08957">
        <ele>120.5</ele>
        <time>2020-10-22T09:13:41.000Z</time>
      </trkpt>
      <trkpt lat="49.2131" lon="0.08952">
        <ele>126.5</ele>
        <time>2020-10-22T09:13:58.000Z</time>
      </trkpt>
      <trkpt lat="49.21324" lon="0.08949">
        <ele>126.2</ele>
        <time>2020-10-22T09:14:15.000Z</time>
      </trkpt>
      <trkpt lat="49.21335" lon="0.08938">
        <ele>128.5</ele>
        <time>2020-10-22T09:14:29.000Z</time>
      </trkpt>
      <trkpt lat="49.21349" lon="0.08932">
        <ele>130.7</ele>
        <time>2020-10-22T09:14:43.000Z</time>
      </trkpt>
      <trkpt lat="49.21362" lon="0.08923">
        <ele>132</ele>
        <time>2020-10-22T09:14:55.000Z</time>
      </trkpt>
      <trkpt lat="49.21373" lon="0.08911">
        <ele>132.1</ele>
        <time>2020-10-22T09:15:08.000Z</time>
      </trkpt>
      <trkpt lat="49.21387" lon="0.08903">
        <ele>133</ele>
        <time>2020-10-22T09:15:22.000Z</time>
      </trkpt>
      <trkpt lat="49.21399" lon="0.08892">
        <ele>133.1</ele>
        <time>2020-10-22T09:15:36.000Z</time>
      </trkpt>
      <trkpt lat="49.21411" lon="0.08881">
        <ele>133.5</ele>
        <time>2020-10-22T09:15:52.000Z</time>
      </trkpt>
      <trkpt lat="49.21424" lon="0.08888">
        <ele>134</ele>
        <time>2020-10-22T09:16:27.000Z</time>
      </trkpt>
      <trkpt lat="49.21431" lon="0.08907">
        <ele>133.5</ele>
        <time>2020-10-22T09:16:44.000Z</time>
      </trkpt>
      <trkpt lat="49.21442" lon="0.08922">
        <ele>133.7</ele>
        <time>2020-10-22T09:16:55.000Z</time>
      </trkpt>
      <trkpt lat="49.21456" lon="0.08925">
        <ele>133.3</ele>
        <time>2020-10-22T09:17:11.000Z</time>
      </trkpt>
      <trkpt lat="49.21469" lon="0.08919">
        <ele>134.1</ele>
        <time>2020-10-22T09:17:26.000Z</time>
      </trkpt>
      <trkpt lat="49.21482" lon="0.08917">
        <ele>133.1</ele>
        <time>2020-10-22T09:17:42.000Z</time>
      </trkpt>
      <trkpt lat="49.21496" lon="0.08916">
        <ele>134.5</ele>
        <time>2020-10-22T09:17:52.000Z</time>
      </trkpt>
      <trkpt lat="49.2151" lon="0.08914">
        <ele>134.6</ele>
        <time>2020-10-22T09:18:04.000Z</time>
      </trkpt>
      <trkpt lat="49.21524" lon="0.0892">
        <ele>134.7</ele>
        <time>2020-10-22T09:18:17.000Z</time>
      </trkpt>
      <trkpt lat="49.21536" lon="0.08928">
        <ele>135.1</ele>
        <time>2020-10-22T09:18:33.000Z</time>
      </trkpt>
      <trkpt lat="49.2155" lon="0.08928">
        <ele>135.5</ele>
        <time>2020-10-22T09:18:52.000Z</time>
      </trkpt>
      <trkpt lat="49.21564" lon="0.08932">
        <ele>134.7</ele>
        <time>2020-10-22T09:19:09.000Z</time>
      </trkpt>
      <trkpt lat="49.21575" lon="0.08944">
        <ele>134.6</ele>
        <time>2020-10-22T09:19:25.000Z</time>
      </trkpt>
      <trkpt lat="49.21588" lon="0.08951">
        <ele>135.2</ele>
        <time>2020-10-22T09:19:36.000Z</time>
      </trkpt>
      <trkpt lat="49.21601" lon="0.08966">
        <ele>134.9</ele>
        <time>2020-10-22T09:19:49.000Z</time>
      </trkpt>
      <trkpt lat="49.21613" lon="0.08977">
        <ele>135.2</ele>
        <time>2020-10-22T09:20:00.000Z</time>
      </trkpt>
      <trkpt lat="49.21626" lon="0.08988">
        <ele>135.6</ele>
        <time>2020-10-22T09:20:13.000Z</time>
      </trkpt>
      <trkpt lat="49.21638" lon="0.09">
        <ele>134.9</ele>
        <time>2020-10-22T09:20:25.000Z</time>
      </trkpt>
      <trkpt lat="49.21651" lon="0.09008">
        <ele>135.6</ele>
        <time>2020-10-22T09:20:38.000Z</time>
      </trkpt>
      <trkpt lat="49.21663" lon="0.0902">
        <ele>135.3</ele>
        <time>2020-10-22T09:20:52.000Z</time>
      </trkpt>
      <trkpt lat="49.21675" lon="0.09027">
        <ele>135.3</ele>
        <time>2020-10-22T09:21:05.000Z</time>
      </trkpt>
      <trkpt lat="49.21689" lon="0.09035">
        <ele>135.5</ele>
        <time>2020-10-22T09:21:20.000Z</time>
      </trkpt>
      <trkpt lat="49.21703" lon="0.09042">
        <ele>134.8</ele>
        <time>2020-10-22T09:21:33.000Z</time>
      </trkpt>
      <trkpt lat="49.21716" lon="0.09048">
        <ele>134.5</ele>
        <time>2020-10-22T09:21:50.000Z</time>
      </trkpt>
      <trkpt lat="49.21731" lon="0.09053">
        <ele>133.7</ele>
        <time>2020-10-22T09:22:11.000Z</time>
      </trkpt>
      <trkpt lat="49.21744" lon="0.09061">
        <ele>133.1</ele>
        <time>2020-10-22T09:22:20.000Z</time>
      </trkpt>
      <trkpt lat="49.21755" lon="0.09073">
        <ele>132.8</ele>
        <time>2020-10-22T09:22:34.000Z</time>
      </trkpt>
      <trkpt lat="49.21764" lon="0.09091">
        <ele>131.7</ele>
        <time>2020-10-22T09:22:54.000Z</time>
      </trkpt>
      <trkpt lat="49.21775" lon="0.09103">
        <ele>131</ele>
        <time>2020-10-22T09:23:04.000Z</time>
      </trkpt>
      <trkpt lat="49.21788" lon="0.09113">
        <ele>130.5</ele>
        <time>2020-10-22T09:23:17.000Z</time>
      </trkpt>
      <trkpt lat="49.21802" lon="0.0912">
        <ele>129.9</ele>
        <time>2020-10-22T09:23:27.000Z</time>
      </trkpt>
      <trkpt lat="49.21815" lon="0.09127">
        <ele>129.4</ele>
        <time>2020-10-22T09:23:42.000Z</time>
      </trkpt>
      <trkpt lat="49.21827" lon="0.09137">
        <ele>130.6</ele>
        <time>2020-10-22T09:23:56.000Z</time>
      </trkpt>
      <trkpt lat="49.2184" lon="0.09148">
        <ele>133</ele>
        <time>2020-10-22T09:24:11.000Z</time>
      </trkpt>
      <trkpt lat="49.21852" lon="0.09161">
        <ele>134.2</ele>
        <time>2020-10-22T09:24:23.000Z</time>
      </trkpt>
      <trkpt lat="49.21865" lon="0.09171">
        <ele>133.8</ele>
        <time>2020-10-22T09:24:33.000Z</time>
      </trkpt>
      <trkpt lat="49.21874" lon="0.09185">
        <ele>134.8</ele>
        <time>2020-10-22T09:24:47.000Z</time>
      </trkpt>
      <trkpt lat="49.21887" lon="0.09195">
        <ele>135.9</ele>
        <time>2020-10-22T09:25:01.000Z</time>
      </trkpt>
      <trkpt lat="49.21901" lon="0.09193">
        <ele>137.4</ele>
        <time>2020-10-22T09:25:19.000Z</time>
      </trkpt>
      <trkpt lat="49.21915" lon="0.0919">
        <ele>137.8</ele>
        <time>2020-10-22T09:25:34.000Z</time>
      </trkpt>
      <trkpt lat="49.21929" lon="0.09187">
        <ele>137.6</ele>
        <time>2020-10-22T09:25:45.000Z</time>
      </trkpt>
      <trkpt lat="49.21943" lon="0.09181">
        <ele>137.6</ele>
        <time>2020-10-22T09:25:59.000Z</time>
      </trkpt>
      <trkpt lat="49.21957" lon="0.09172">
        <ele>137.5</ele>
        <time>2020-10-22T09:26:15.000Z</time>
      </trkpt>
      <trkpt lat="49.21971" lon="0.09167">
        <ele>136.9</ele>
        <time>2020-10-22T09:26:29.000Z</time>
      </trkpt>
      <trkpt lat="49.21983" lon="0.09158">
        <ele>136.5</ele>
        <time>2020-10-22T09:26:44.000Z</time>
      </trkpt>
      <trkpt lat="49.21994" lon="0.09146">
        <ele>136.1</ele>
        <time>2020-10-22T09:27:00.000Z</time>
      </trkpt>
      <trkpt lat="49.22007" lon="0.09137">
        <ele>135.1</ele>
        <time>2020-10-22T09:27:14.000Z</time>
      </trkpt>
      <trkpt lat="49.2202" lon="0.09129">
        <ele>134.5</ele>
        <time>2020-10-22T09:27:28.000Z</time>
      </trkpt>
      <trkpt lat="49.22034" lon="0.09126">
        <ele>134.6</ele>
        <time>2020-10-22T09:27:44.000Z</time>
      </trkpt>
      <trkpt lat="49.22048" lon="0.09124">
        <ele>133.8</ele>
        <time>2020-10-22T09:28:00.000Z</time>
      </trkpt>
      <trkpt lat="49.22061" lon="0.0913">
        <ele>133.5</ele>
        <time>2020-10-22T09:28:19.000Z</time>
      </trkpt>
      <trkpt lat="49.22074" lon="0.09137">
        <ele>133.8</ele>
        <time>2020-10-22T09:28:34.000Z</time>
      </trkpt>
      <trkpt lat="49.22086" lon="0.09148">
        <ele>135.4</ele>
        <time>2020-10-22T09:28:48.000Z</time>
      </trkpt>
      <trkpt lat="49.22099" lon="0.09158">
        <ele>135.7</ele>
        <time>2020-10-22T09:29:03.000Z</time>
      </trkpt>
      <trkpt lat="49.22111" lon="0.09167">
        <ele>137.3</ele>
        <time>2020-10-22T09:29:14.000Z</time>
      </trkpt>
      <trkpt lat="49.22124" lon="0.09173">
        <ele>137.9</ele>
        <time>2020-10-22T09:29:24.000Z</time>
      </trkpt>
      <trkpt lat="49.22137" lon="0.09182">
        <ele>137.2</ele>
        <time>2020-10-22T09:29:38.000Z</time>
      </trkpt>
      <trkpt lat="49.22149" lon="0.09194">
        <ele>138.4</ele>
        <time>2020-10-22T09:29:53.000Z</time>
      </trkpt>
      <trkpt lat="49.22161" lon="0.09203">
        <ele>139.4</ele>
        <time>2020-10-22T09:30:01.000Z</time>
      </trkpt>
      <trkpt lat="49.22174" lon="0.09215">
        <ele>139.8</ele>
        <time>2020-10-22T09:30:13.000Z</time>
      </trkpt>
      <trkpt lat="49.22185" lon="0.09227">
        <ele>139.3</ele>
        <time>2020-10-22T09:30:25.000Z</time>
      </trkpt>
      <trkpt lat="49.22198" lon="0.09238">
        <ele>140</ele>
        <time>2020-10-22T09:30:37.000Z</time>
      </trkpt>
      <trkpt lat="49.2221" lon="0.09251">
        <ele>140.5</ele>
        <time>2020-10-22T09:30:49.000Z</time>
      </trkpt>
      <trkpt lat="49.22222" lon="0.09261">
        <ele>140.4</ele>
        <time>2020-10-22T09:31:01.000Z</time>
      </trkpt>
      <trkpt lat="49.22234" lon="0.09273">
        <ele>140.8</ele>
        <time>2020-10-22T09:31:14.000Z</time>
      </trkpt>
      <trkpt lat="49.22243" lon="0.09288">
        <ele>140.8</ele>
        <time>2020-10-22T09:31:25.000Z</time>
      </trkpt>
      <trkpt lat="49.22254" lon="0.093">
        <ele>141.3</ele>
        <time>2020-10-22T09:31:36.000Z</time>
      </trkpt>
      <trkpt lat="49.22266" lon="0.09311">
        <ele>141.4</ele>
        <time>2020-10-22T09:31:51.000Z</time>
      </trkpt>
      <trkpt lat="49.22278" lon="0.09324">
        <ele>141.5</ele>
        <time>2020-10-22T09:32:08.000Z</time>
      </trkpt>
      <trkpt lat="49.22291" lon="0.0933">
        <ele>141.7</ele>
        <time>2020-10-22T09:32:23.000Z</time>
      </trkpt>
      <trkpt lat="49.22307" lon="0.09333">
        <ele>141.5</ele>
        <time>2020-10-22T09:32:29.000Z</time>
      </trkpt>
      <trkpt lat="49.22319" lon="0.09322">
        <ele>142.3</ele>
        <time>2020-10-22T09:32:39.000Z</time>
      </trkpt>
      <trkpt lat="49.2233" lon="0.0931">
        <ele>142.5</ele>
        <time>2020-10-22T09:32:51.000Z</time>
      </trkpt>
      <trkpt lat="49.2234" lon="0.09295">
        <ele>143</ele>
        <time>2020-10-22T09:33:03.000Z</time>
      </trkpt>
      <trkpt lat="49.22349" lon="0.09278">
        <ele>143.1</ele>
        <time>2020-10-22T09:33:15.000Z</time>
      </trkpt>
      <trkpt lat="49.22358" lon="0.09261">
        <ele>143.5</ele>
        <time>2020-10-22T09:33:27.000Z</time>
      </trkpt>
      <trkpt lat="49.22369" lon="0.09246">
        <ele>143.4</ele>
        <time>2020-10-22T09:33:39.000Z</time>
      </trkpt>
      <trkpt lat="49.22379" lon="0.0923">
        <ele>143.4</ele>
        <time>2020-10-22T09:33:51.000Z</time>
      </trkpt>
      <trkpt lat="49.22388" lon="0.09214">
        <ele>143</ele>
        <time>2020-10-22T09:34:05.000Z</time>
      </trkpt>
      <trkpt lat="49.22397" lon="0.09198">
        <ele>143.2</ele>
        <time>2020-10-22T09:34:18.000Z</time>
      </trkpt>
      <trkpt lat="49.22409" lon="0.09188">
        <ele>142.2</ele>
        <time>2020-10-22T09:34:35.000Z</time>
      </trkpt>
      <trkpt lat="49.22421" lon="0.09198">
        <ele>143.2</ele>
        <time>2020-10-22T09:34:47.000Z</time>
      </trkpt>
      <trkpt lat="49.22434" lon="0.09206">
        <ele>143.3</ele>
        <time>2020-10-22T09:34:58.000Z</time>
      </trkpt>
      <trkpt lat="49.22447" lon="0.09212">
        <ele>143.5</ele>
        <time>2020-10-22T09:35:10.000Z</time>
      </trkpt>
      <trkpt lat="49.22459" lon="0.09222">
        <ele>144</ele>
        <time>2020-10-22T09:35:22.000Z</time>
      </trkpt>
      <trkpt lat="49.22472" lon="0.09228">
        <ele>144.1</ele>
        <time>2020-10-22T09:35:34.000Z</time>
      </trkpt>
      <trkpt lat="49.22485" lon="0.09237">
        <ele>144.4</ele>
        <time>2020-10-22T09:35:46.000Z</time>
      </trkpt>
      <trkpt lat="49.22498" lon="0.09248">
        <ele>145.2</ele>
        <time>2020-10-22T09:35:57.000Z</time>
      </trkpt>
      <trkpt lat="49.22511" lon="0.09255">
        <ele>145.4</ele>
        <time>2020-10-22T09:36:09.000Z</time>
      </trkpt>
      <trkpt lat="49.22525" lon="0.09259">
        <ele>146.1</ele>
        <time>2020-10-22T09:36:19.000Z</time>
      </trkpt>
      <trkpt lat="49.22538" lon="0.0927">
        <ele>146.1</ele>
        <time>2020-10-22T09:36:30.000Z</time>
      </trkpt>
      <trkpt lat="49.22552" lon="0.09276">
        <ele>146.2</ele>
        <time>2020-10-22T09:36:43.000Z</time>
      </trkpt>
      <trkpt lat="49.22566" lon="0.09283">
        <ele>146.4</ele>
        <time>2020-10-22T09:36:55.000Z</time>
      </trkpt>
      <trkpt lat="49.2258" lon="0.09289">
        <ele>146.2</ele>
        <time>2020-10-22T09:37:07.000Z</time>
      </trkpt>
      <trkpt lat="49.22593" lon="0.09294">
        <ele>146.8</ele>
        <time>2020-10-22T09:37:19.000Z</time>
      </trkpt>
      <trkpt lat="49.22607" lon="0.09301">
        <ele>147.3</ele>
        <time>2020-10-22T09:37:31.000Z</time>
      </trkpt>
      <trkpt lat="49.2262" lon="0.09307">
        <ele>146.8</ele>
        <time>2020-10-22T09:37:42.000Z</time>
      </trkpt>
      <trkpt lat="49.22634" lon="0.09314">
        <ele>146.7</ele>
        <time>2020-10-22T09:37:53.000Z</time>
      </trkpt>
      <trkpt lat="49.22647" lon="0.09319">
        <ele>146.9</ele>
        <time>2020-10-22T09:38:06.000Z</time>
      </trkpt>
      <trkpt lat="49.22661" lon="0.09326">
        <ele>146.7</ele>
        <time>2020-10-22T09:38:18.000Z</time>
      </trkpt>
      <trkpt lat="49.22675" lon="0.09331">
        <ele>146.8</ele>
        <time>2020-10-22T09:38:31.000Z</time>
      </trkpt>
      <trkpt lat="49.22685" lon="0.09346">
        <ele>146.1</ele>
        <time>2020-10-22T09:39:01.000Z</time>
      </trkpt>
      <trkpt lat="49.22679" lon="0.09366">
        <ele>145.1</ele>
        <time>2020-10-22T09:39:23.000Z</time>
      </trkpt>
      <trkpt lat="49.22675" lon="0.09388">
        <ele>144.7</ele>
        <time>2020-10-22T09:39:35.000Z</time>
      </trkpt>
      <trkpt lat="49.22671" lon="0.09408">
        <ele>144.8</ele>
        <time>2020-10-22T09:39:53.000Z</time>
      </trkpt>
      <trkpt lat="49.22665" lon="0.09428">
        <ele>145.2</ele>
        <time>2020-10-22T09:40:06.000Z</time>
      </trkpt>
      <trkpt lat="49.22661" lon="0.09449">
        <ele>145.1</ele>
        <time>2020-10-22T09:40:18.000Z</time>
      </trkpt>
      <trkpt lat="49.22656" lon="0.0947">
        <ele>144.9</ele>
        <time>2020-10-22T09:40:32.000Z</time>
      </trkpt>
      <trkpt lat="49.2265" lon="0.09489">
        <ele>144.8</ele>
        <time>2020-10-22T09:40:45.000Z</time>
      </trkpt>
      <trkpt lat="49.22646" lon="0.09511">
        <ele>144.4</ele>
        <time>2020-10-22T09:40:58.000Z</time>
      </trkpt>
      <trkpt lat="49.22642" lon="0.09532">
        <ele>144.8</ele>
        <time>2020-10-22T09:41:11.000Z</time>
      </trkpt>
      <trkpt lat="49.22637" lon="0.09552">
        <ele>144.3</ele>
        <time>2020-10-22T09:41:25.000Z</time>
      </trkpt>
      <trkpt lat="49.22632" lon="0.09571">
        <ele>143.8</ele>
        <time>2020-10-22T09:41:37.000Z</time>
      </trkpt>
      <trkpt lat="49.22628" lon="0.09591">
        <ele>143.6</ele>
        <time>2020-10-22T09:41:50.000Z</time>
      </trkpt>
      <trkpt lat="49.22623" lon="0.09612">
        <ele>143.2</ele>
        <time>2020-10-22T09:42:03.000Z</time>
      </trkpt>
      <trkpt lat="49.22618" lon="0.09633">
        <ele>142.9</ele>
        <time>2020-10-22T09:42:14.000Z</time>
      </trkpt>
      <trkpt lat="49.22613" lon="0.09653">
        <ele>142.4</ele>
        <time>2020-10-22T09:42:26.000Z</time>
      </trkpt>
      <trkpt lat="49.22608" lon="0.09673">
        <ele>142.1</ele>
        <time>2020-10-22T09:42:38.000Z</time>
      </trkpt>
      <trkpt lat="49.22603" lon="0.09693">
        <ele>142.7</ele>
        <time>2020-10-22T09:42:49.000Z</time>
      </trkpt>
      <trkpt lat="49.22599" lon="0.09714">
        <ele>142.5</ele>
        <time>2020-10-22T09:43:01.000Z</time>
      </trkpt>
      <trkpt lat="49.22595" lon="0.09734">
        <ele>142.4</ele>
        <time>2020-10-22T09:43:11.000Z</time>
      </trkpt>
      <trkpt lat="49.2259" lon="0.09753">
        <ele>142.4</ele>
        <time>2020-10-22T09:43:22.000Z</time>
      </trkpt>
      <trkpt lat="49.22585" lon="0.09773">
        <ele>142.9</ele>
        <time>2020-10-22T09:43:32.000Z</time>
      </trkpt>
      <trkpt lat="49.22581" lon="0.09793">
        <ele>141.9</ele>
        <time>2020-10-22T09:43:43.000Z</time>
      </trkpt>
      <trkpt lat="49.22574" lon="0.09813">
        <ele>142.8</ele>
        <time>2020-10-22T09:43:54.000Z</time>
      </trkpt>
      <trkpt lat="49.22565" lon="0.09829">
        <ele>142.4</ele>
        <time>2020-10-22T09:44:06.000Z</time>
      </trkpt>
      <trkpt lat="49.22553" lon="0.0984">
        <ele>141.7</ele>
        <time>2020-10-22T09:44:28.000Z</time>
      </trkpt>
      <trkpt lat="49.2254" lon="0.09851">
        <ele>142.7</ele>
        <time>2020-10-22T09:44:39.000Z</time>
      </trkpt>
      <trkpt lat="49.22528" lon="0.09864">
        <ele>142.6</ele>
        <time>2020-10-22T09:44:51.000Z</time>
      </trkpt>
      <trkpt lat="49.22517" lon="0.09876">
        <ele>142.6</ele>
        <time>2020-10-22T09:45:03.000Z</time>
      </trkpt>
      <trkpt lat="49.22505" lon="0.09888">
        <ele>143.5</ele>
        <time>2020-10-22T09:45:14.000Z</time>
      </trkpt>
      <trkpt lat="49.22493" lon="0.09901">
        <ele>143.6</ele>
        <time>2020-10-22T09:45:27.000Z</time>
      </trkpt>
      <trkpt lat="49.22481" lon="0.09913">
        <ele>143.5</ele>
        <time>2020-10-22T09:45:39.000Z</time>
      </trkpt>
      <trkpt lat="49.22469" lon="0.09925">
        <ele>143.5</ele>
        <time>2020-10-22T09:45:52.000Z</time>
      </trkpt>
      <trkpt lat="49.22456" lon="0.09936">
        <ele>143.9</ele>
        <time>2020-10-22T09:46:02.000Z</time>
      </trkpt>
      <trkpt lat="49.22444" lon="0.09946">
        <ele>143.4</ele>
        <time>2020-10-22T09:46:13.000Z</time>
      </trkpt>
      <trkpt lat="49.22432" lon="0.09958">
        <ele>144.3</ele>
        <time>2020-10-22T09:46:24.000Z</time>
      </trkpt>
      <trkpt lat="49.22422" lon="0.09973">
        <ele>144.3</ele>
        <time>2020-10-22T09:46:35.000Z</time>
      </trkpt>
      <trkpt lat="49.2241" lon="0.09985">
        <ele>144.3</ele>
        <time>2020-10-22T09:46:46.000Z</time>
      </trkpt>
      <trkpt lat="49.224" lon="0.1">
        <ele>144.6</ele>
        <time>2020-10-22T09:46:57.000Z</time>
      </trkpt>
      <trkpt lat="49.22389" lon="0.10012">
        <ele>143.9</ele>
        <time>2020-10-22T09:47:08.000Z</time>
      </trkpt>
      <trkpt lat="49.22377" lon="0.10026">
        <ele>144.3</ele>
        <time>2020-10-22T09:47:19.000Z</time>
      </trkpt>
      <trkpt lat="49.22365" lon="0.1004">
        <ele>144.7</ele>
        <time>2020-10-22T09:47:30.000Z</time>
      </trkpt>
      <trkpt lat="49.22354" lon="0.10053">
        <ele>144.8</ele>
        <time>2020-10-22T09:47:40.000Z</time>
      </trkpt>
      <trkpt lat="49.22343" lon="0.10065">
        <ele>143.9</ele>
        <time>2020-10-22T09:47:50.000Z</time>
      </trkpt>
      <trkpt lat="49.22331" lon="0.10078">
        <ele>144.2</ele>
        <time>2020-10-22T09:48:01.000Z</time>
      </trkpt>
      <trkpt lat="49.2232" lon="0.10092">
        <ele>144.7</ele>
        <time>2020-10-22T09:48:12.000Z</time>
      </trkpt>
      <trkpt lat="49.22307" lon="0.10104">
        <ele>144.4</ele>
        <time>2020-10-22T09:48:24.000Z</time>
      </trkpt>
      <trkpt lat="49.22295" lon="0.10116">
        <ele>144.8</ele>
        <time>2020-10-22T09:48:35.000Z</time>
      </trkpt>
      <trkpt lat="49.22284" lon="0.1013">
        <ele>144.6</ele>
        <time>2020-10-22T09:48:48.000Z</time>
      </trkpt>
      <trkpt lat="49.22272" lon="0.10141">
        <ele>144.4</ele>
        <time>2020-10-22T09:48:59.000Z</time>
      </trkpt>
      <trkpt lat="49.2226" lon="0.10152">
        <ele>144.7</ele>
        <time>2020-10-22T09:49:10.000Z</time>
      </trkpt>
      <trkpt lat="49.22249" lon="0.10165">
        <ele>144.7</ele>
        <time>2020-10-22T09:49:22.000Z</time>
      </trkpt>
      <trkpt lat="49.22237" lon="0.10176">
        <ele>145</ele>
        <time>2020-10-22T09:49:33.000Z</time>
      </trkpt>
      <trkpt lat="49.22225" lon="0.10189">
        <ele>144.6</ele>
        <time>2020-10-22T09:49:44.000Z</time>
      </trkpt>
      <trkpt lat="49.22214" lon="0.10204">
        <ele>145.4</ele>
        <time>2020-10-22T09:49:56.000Z</time>
      </trkpt>
      <trkpt lat="49.22202" lon="0.10215">
        <ele>145.3</ele>
        <time>2020-10-22T09:50:06.000Z</time>
      </trkpt>
      <trkpt lat="49.22191" lon="0.10228">
        <ele>145.2</ele>
        <time>2020-10-22T09:50:17.000Z</time>
      </trkpt>
      <trkpt lat="49.22181" lon="0.10242">
        <ele>145.2</ele>
        <time>2020-10-22T09:50:29.000Z</time>
      </trkpt>
      <trkpt lat="49.22168" lon="0.10248">
        <ele>145.3</ele>
        <time>2020-10-22T09:50:40.000Z</time>
      </trkpt>
      <trkpt lat="49.22155" lon="0.10239">
        <ele>145.9</ele>
        <time>2020-10-22T09:50:53.000Z</time>
      </trkpt>
      <trkpt lat="49.22147" lon="0.10222">
        <ele>146.2</ele>
        <time>2020-10-22T09:51:04.000Z</time>
      </trkpt>
      <trkpt lat="49.22137" lon="0.10207">
        <ele>146.8</ele>
        <time>2020-10-22T09:51:15.000Z</time>
      </trkpt>
      <trkpt lat="49.22129" lon="0.1019">
        <ele>146.6</ele>
        <time>2020-10-22T09:51:26.000Z</time>
      </trkpt>
      <trkpt lat="49.2212" lon="0.10175">
        <ele>146.8</ele>
        <time>2020-10-22T09:51:37.000Z</time>
      </trkpt>
      <trkpt lat="49.22109" lon="0.10162">
        <ele>147.3</ele>
        <time>2020-10-22T09:51:49.000Z</time>
      </trkpt>
      <trkpt lat="49.22099" lon="0.10146">
        <ele>147.4</ele>
        <time>2020-10-22T09:52:00.000Z</time>
      </trkpt>
      <trkpt lat="49.22089" lon="0.10131">
        <ele>147.2</ele>
        <time>2020-10-22T09:52:11.000Z</time>
      </trkpt>
      <trkpt lat="49.2208" lon="0.10116">
        <ele>147.7</ele>
        <time>2020-10-22T09:52:22.000Z</time>
      </trkpt>
      <trkpt lat="49.22068" lon="0.10104">
        <ele>148.1</ele>
        <time>2020-10-22T09:52:33.000Z</time>
      </trkpt>
      <trkpt lat="49.22056" lon="0.10091">
        <ele>147.6</ele>
        <time>2020-10-22T09:52:44.000Z</time>
      </trkpt>
      <trkpt lat="49.22046" lon="0.10078">
        <ele>148.1</ele>
        <time>2020-10-22T09:52:55.000Z</time>
      </trkpt>
      <trkpt lat="49.22032" lon="0.10068">
        <ele>147.6</ele>
        <time>2020-10-22T09:53:06.000Z</time>
      </trkpt>
      <trkpt lat="49.22018" lon="0.10068">
        <ele>148.3</ele>
        <time>2020-10-22T09:53:17.000Z</time>
      </trkpt>
      <trkpt lat="49.22004" lon="0.1007">
        <ele>147.7</ele>
        <time>2020-10-22T09:53:30.000Z</time>
      </trkpt>
      <trkpt lat="49.2199" lon="0.10075">
        <ele>148.4</ele>
        <time>2020-10-22T09:53:41.000Z</time>
      </trkpt>
      <trkpt lat="49.21976" lon="0.10074">
        <ele>147.6</ele>
        <time>2020-10-22T09:53:52.000Z</time>
      </trkpt>
      <trkpt lat="49.21962" lon="0.10074">
        <ele>148</ele>
        <time>2020-10-22T09:54:03.000Z</time>
      </trkpt>
      <trkpt lat="49.21947" lon="0.10072">
        <ele>147.3</ele>
        <time>2020-10-22T09:54:16.000Z</time>
      </trkpt>
      <trkpt lat="49.21933" lon="0.10068">
        <ele>147.6</ele>
        <time>2020-10-22T09:54:25.000Z</time>
      </trkpt>
      <trkpt lat="49.21919" lon="0.10064">
        <ele>147</ele>
        <time>2020-10-22T09:54:36.000Z</time>
      </trkpt>
      <trkpt lat="49.21904" lon="0.10067">
        <ele>147.6</ele>
        <time>2020-10-22T09:54:48.000Z</time>
      </trkpt>
      <trkpt lat="49.2189" lon="0.10068">
        <ele>147.1</ele>
        <time>2020-10-22T09:54:59.000Z</time>
      </trkpt>
      <trkpt lat="49.21876" lon="0.10069">
        <ele>147.5</ele>
        <time>2020-10-22T09:55:09.000Z</time>
      </trkpt>
      <trkpt lat="49.21863" lon="0.10074">
        <ele>146.6</ele>
        <time>2020-10-22T09:55:20.000Z</time>
      </trkpt>
      <trkpt lat="49.21849" lon="0.10082">
        <ele>147.3</ele>
        <time>2020-10-22T09:55:32.000Z</time>
      </trkpt>
      <trkpt lat="49.21835" lon="0.10085">
        <ele>147.2</ele>
        <time>2020-10-22T09:55:42.000Z</time>
      </trkpt>
      <trkpt lat="49.21821" lon="0.10091">
        <ele>146.6</ele>
        <time>2020-10-22T09:55:53.000Z</time>
      </trkpt>
      <trkpt lat="49.21807" lon="0.10093">
        <ele>146.6</ele>
        <time>2020-10-22T09:56:04.000Z</time>
      </trkpt>
      <trkpt lat="49.21794" lon="0.10097">
        <ele>145.9</ele>
        <time>2020-10-22T09:56:15.000Z</time>
      </trkpt>
      <trkpt lat="49.21779" lon="0.101">
        <ele>146.9</ele>
        <time>2020-10-22T09:56:28.000Z</time>
      </trkpt>
      <trkpt lat="49.21765" lon="0.10103">
        <ele>146.5</ele>
        <time>2020-10-22T09:56:37.000Z</time>
      </trkpt>
      <trkpt lat="49.2175" lon="0.10104">
        <ele>145.9</ele>
        <time>2020-10-22T09:56:49.000Z</time>
      </trkpt>
      <trkpt lat="49.21737" lon="0.1011">
        <ele>146</ele>
        <time>2020-10-22T09:56:59.000Z</time>
      </trkpt>
      <trkpt lat="49.21722" lon="0.10113">
        <ele>145.4</ele>
        <time>2020-10-22T09:57:11.000Z</time>
      </trkpt>
      <trkpt lat="49.2171" lon="0.10124">
        <ele>145.5</ele>
        <time>2020-10-22T09:57:21.000Z</time>
      </trkpt>
      <trkpt lat="49.21696" lon="0.10132">
        <ele>145.1</ele>
        <time>2020-10-22T09:57:32.000Z</time>
      </trkpt>
      <trkpt lat="49.21684" lon="0.10142">
        <ele>145.1</ele>
        <time>2020-10-22T09:57:42.000Z</time>
      </trkpt>
      <trkpt lat="49.21672" lon="0.10154">
        <ele>144.1</ele>
        <time>2020-10-22T09:57:54.000Z</time>
      </trkpt>
      <trkpt lat="49.21663" lon="0.1017">
        <ele>144.5</ele>
        <time>2020-10-22T09:58:04.000Z</time>
      </trkpt>
      <trkpt lat="49.21655" lon="0.10186">
        <ele>144</ele>
        <time>2020-10-22T09:58:15.000Z</time>
      </trkpt>
      <trkpt lat="49.21645" lon="0.10199">
        <ele>144.1</ele>
        <time>2020-10-22T09:58:26.000Z</time>
      </trkpt>
      <trkpt lat="49.21635" lon="0.10214">
        <ele>143.2</ele>
        <time>2020-10-22T09:58:45.000Z</time>
      </trkpt>
      <trkpt lat="49.21626" lon="0.10232">
        <ele>144.3</ele>
        <time>2020-10-22T09:58:55.000Z</time>
      </trkpt>
      <trkpt lat="49.21617" lon="0.10249">
        <ele>143.6</ele>
        <time>2020-10-22T09:59:07.000Z</time>
      </trkpt>
      <trkpt lat="49.21609" lon="0.10267">
        <ele>143.8</ele>
        <time>2020-10-22T09:59:18.000Z</time>
      </trkpt>
      <trkpt lat="49.21598" lon="0.1028">
        <ele>143.5</ele>
        <time>2020-10-22T09:59:30.000Z</time>
      </trkpt>
      <trkpt lat="49.21587" lon="0.10294">
        <ele>143.3</ele>
        <time>2020-10-22T09:59:42.000Z</time>
      </trkpt>
      <trkpt lat="49.21575" lon="0.10305">
        <ele>143.3</ele>
        <time>2020-10-22T09:59:52.000Z</time>
      </trkpt>
      <trkpt lat="49.21562" lon="0.10317">
        <ele>143.1</ele>
        <time>2020-10-22T10:00:05.000Z</time>
      </trkpt>
      <trkpt lat="49.2155" lon="0.10327">
        <ele>143.6</ele>
        <time>2020-10-22T10:00:16.000Z</time>
      </trkpt>
      <trkpt lat="49.21537" lon="0.10337">
        <ele>143.3</ele>
        <time>2020-10-22T10:00:29.000Z</time>
      </trkpt>
      <trkpt lat="49.21524" lon="0.10344">
        <ele>143.7</ele>
        <time>2020-10-22T10:00:39.000Z</time>
      </trkpt>
      <trkpt lat="49.21512" lon="0.10354">
        <ele>143.3</ele>
        <time>2020-10-22T10:00:50.000Z</time>
      </trkpt>
      <trkpt lat="49.21498" lon="0.1036">
        <ele>143.5</ele>
        <time>2020-10-22T10:01:00.000Z</time>
      </trkpt>
      <trkpt lat="49.21485" lon="0.10366">
        <ele>143.2</ele>
        <time>2020-10-22T10:01:14.000Z</time>
      </trkpt>
      <trkpt lat="49.21473" lon="0.10376">
        <ele>142.7</ele>
        <time>2020-10-22T10:01:26.000Z</time>
      </trkpt>
      <trkpt lat="49.2146" lon="0.10383">
        <ele>142.4</ele>
        <time>2020-10-22T10:01:38.000Z</time>
      </trkpt>
      <trkpt lat="49.21446" lon="0.10391">
        <ele>142.9</ele>
        <time>2020-10-22T10:01:50.000Z</time>
      </trkpt>
      <trkpt lat="49.21432" lon="0.10394">
        <ele>141.9</ele>
        <time>2020-10-22T10:02:03.000Z</time>
      </trkpt>
      <trkpt lat="49.21423" lon="0.10378">
        <ele>142.1</ele>
        <time>2020-10-22T10:02:18.000Z</time>
      </trkpt>
      <trkpt lat="49.21414" lon="0.10363">
        <ele>141.4</ele>
        <time>2020-10-22T10:02:31.000Z</time>
      </trkpt>
      <trkpt lat="49.21406" lon="0.10344">
        <ele>141.2</ele>
        <time>2020-10-22T10:02:45.000Z</time>
      </trkpt>
      <trkpt lat="49.21399" lon="0.10326">
        <ele>140.7</ele>
        <time>2020-10-22T10:02:59.000Z</time>
      </trkpt>
      <trkpt lat="49.21391" lon="0.10308">
        <ele>140.9</ele>
        <time>2020-10-22T10:03:10.000Z</time>
      </trkpt>
      <trkpt lat="49.21383" lon="0.10292">
        <ele>140</ele>
        <time>2020-10-22T10:03:24.000Z</time>
      </trkpt>
      <trkpt lat="49.21374" lon="0.10273">
        <ele>140.6</ele>
        <time>2020-10-22T10:03:35.000Z</time>
      </trkpt>
      <trkpt lat="49.21366" lon="0.10256">
        <ele>140.3</ele>
        <time>2020-10-22T10:03:49.000Z</time>
      </trkpt>
      <trkpt lat="49.2136" lon="0.10237">
        <ele>139.7</ele>
        <time>2020-10-22T10:04:04.000Z</time>
      </trkpt>
      <trkpt lat="49.21354" lon="0.10215">
        <ele>140.2</ele>
        <time>2020-10-22T10:04:16.000Z</time>
      </trkpt>
      <trkpt lat="49.21345" lon="0.10198">
        <ele>139.5</ele>
        <time>2020-10-22T10:04:29.000Z</time>
      </trkpt>
      <trkpt lat="49.21335" lon="0.10181">
        <ele>139.6</ele>
        <time>2020-10-22T10:04:43.000Z</time>
      </trkpt>
      <trkpt lat="49.21325" lon="0.10165">
        <ele>139</ele>
        <time>2020-10-22T10:04:57.000Z</time>
      </trkpt>
      <trkpt lat="49.21313" lon="0.10151">
        <ele>139.3</ele>
        <time>2020-10-22T10:05:09.000Z</time>
      </trkpt>
      <trkpt lat="49.21302" lon="0.10139">
        <ele>138.7</ele>
        <time>2020-10-22T10:05:21.000Z</time>
      </trkpt>
      <trkpt lat="49.2129" lon="0.10129">
        <ele>138.7</ele>
        <time>2020-10-22T10:05:35.000Z</time>
      </trkpt>
      <trkpt lat="49.21278" lon="0.10117">
        <ele>137.8</ele>
        <time>2020-10-22T10:05:48.000Z</time>
      </trkpt>
      <trkpt lat="49.21265" lon="0.10106">
        <ele>137.2</ele>
        <time>2020-10-22T10:06:01.000Z</time>
      </trkpt>
      <trkpt lat="49.21252" lon="0.10096">
        <ele>137.1</ele>
        <time>2020-10-22T10:06:17.000Z</time>
      </trkpt>
      <trkpt lat="49.21241" lon="0.10086">
        <ele>136.1</ele>
        <time>2020-10-22T10:06:31.000Z</time>
      </trkpt>
      <trkpt lat="49.21228" lon="0.10073">
        <ele>135.3</ele>
        <time>2020-10-22T10:06:42.000Z</time>
      </trkpt>
      <trkpt lat="49.21215" lon="0.10065">
        <ele>134.3</ele>
        <time>2020-10-22T10:06:54.000Z</time>
      </trkpt>
      <trkpt lat="49.21203" lon="0.10054">
        <ele>133.4</ele>
        <time>2020-10-22T10:07:04.000Z</time>
      </trkpt>
      <trkpt lat="49.2119" lon="0.10047">
        <ele>132.7</ele>
        <time>2020-10-22T10:07:17.000Z</time>
      </trkpt>
      <trkpt lat="49.21176" lon="0.1004">
        <ele>131.4</ele>
        <time>2020-10-22T10:07:29.000Z</time>
      </trkpt>
      <trkpt lat="49.21162" lon="0.10037">
        <ele>130.7</ele>
        <time>2020-10-22T10:07:40.000Z</time>
      </trkpt>
      <trkpt lat="49.21149" lon="0.1003">
        <ele>130.8</ele>
        <time>2020-10-22T10:07:51.000Z</time>
      </trkpt>
      <trkpt lat="49.21143" lon="0.10011">
        <ele>132.6</ele>
        <time>2020-10-22T10:08:08.000Z</time>
      </trkpt>
      <trkpt lat="49.21133" lon="0.09994">
        <ele>132.5</ele>
        <time>2020-10-22T10:08:20.000Z</time>
      </trkpt>
      <trkpt lat="49.21128" lon="0.09974">
        <ele>132.8</ele>
        <time>2020-10-22T10:08:35.000Z</time>
      </trkpt>
      <trkpt lat="49.21118" lon="0.09958">
        <ele>131.9</ele>
        <time>2020-10-22T10:08:48.000Z</time>
      </trkpt>
      <trkpt lat="49.21112" lon="0.09939">
        <ele>131.6</ele>
        <time>2020-10-22T10:09:00.000Z</time>
      </trkpt>
      <trkpt lat="49.21106" lon="0.09919">
        <ele>130.2</ele>
        <time>2020-10-22T10:09:12.000Z</time>
      </trkpt>
      <trkpt lat="49.21097" lon="0.09901">
        <ele>129.9</ele>
        <time>2020-10-22T10:09:25.000Z</time>
      </trkpt>
      <trkpt lat="49.21091" lon="0.09882">
        <ele>129.8</ele>
        <time>2020-10-22T10:09:37.000Z</time>
      </trkpt>
      <trkpt lat="49.21082" lon="0.09865">
        <ele>129.6</ele>
        <time>2020-10-22T10:09:47.000Z</time>
      </trkpt>
      <trkpt lat="49.21077" lon="0.09846">
        <ele>129.7</ele>
        <time>2020-10-22T10:09:59.000Z</time>
      </trkpt>
      <trkpt lat="49.2107" lon="0.09827">
        <ele>128.5</ele>
        <time>2020-10-22T10:10:10.000Z</time>
      </trkpt>
      <trkpt lat="49.21063" lon="0.09806">
        <ele>125.9</ele>
        <time>2020-10-22T10:10:25.000Z</time>
      </trkpt>
      <trkpt lat="49.21058" lon="0.09785">
        <ele>125.3</ele>
        <time>2020-10-22T10:10:39.000Z</time>
      </trkpt>
      <trkpt lat="49.21052" lon="0.09766">
        <ele>125</ele>
        <time>2020-10-22T10:10:51.000Z</time>
      </trkpt>
      <trkpt lat="49.21043" lon="0.09748">
        <ele>124.3</ele>
        <time>2020-10-22T10:11:04.000Z</time>
      </trkpt>
      <trkpt lat="49.21039" lon="0.09728">
        <ele>123.9</ele>
        <time>2020-10-22T10:11:14.000Z</time>
      </trkpt>
      <trkpt lat="49.21038" lon="0.09707">
        <ele>123.5</ele>
        <time>2020-10-22T10:11:26.000Z</time>
      </trkpt>
      <trkpt lat="49.21031" lon="0.09688">
        <ele>123.3</ele>
        <time>2020-10-22T10:11:37.000Z</time>
      </trkpt>
      <trkpt lat="49.21024" lon="0.0967">
        <ele>122.3</ele>
        <time>2020-10-22T10:11:49.000Z</time>
      </trkpt>
      <trkpt lat="49.21016" lon="0.09654">
        <ele>121.4</ele>
        <time>2020-10-22T10:12:01.000Z</time>
      </trkpt>
      <trkpt lat="49.2101" lon="0.09633">
        <ele>121.9</ele>
        <time>2020-10-22T10:12:12.000Z</time>
      </trkpt>
      <trkpt lat="49.21004" lon="0.09614">
        <ele>122.3</ele>
        <time>2020-10-22T10:12:28.000Z</time>
      </trkpt>
      <trkpt lat="49.20999" lon="0.09593">
        <ele>122</ele>
        <time>2020-10-22T10:12:42.000Z</time>
      </trkpt>
      <trkpt lat="49.20993" lon="0.09574">
        <ele>121.6</ele>
        <time>2020-10-22T10:12:53.000Z</time>
      </trkpt>
      <trkpt lat="49.20985" lon="0.09554">
        <ele>121.3</ele>
        <time>2020-10-22T10:13:07.000Z</time>
      </trkpt>
      <trkpt lat="49.2098" lon="0.09535">
        <ele>121.3</ele>
        <time>2020-10-22T10:13:24.000Z</time>
      </trkpt>
      <trkpt lat="49.20973" lon="0.09518">
        <ele>120.9</ele>
        <time>2020-10-22T10:13:37.000Z</time>
      </trkpt>
      <trkpt lat="49.20968" lon="0.09497">
        <ele>120.3</ele>
        <time>2020-10-22T10:13:55.000Z</time>
      </trkpt>
      <trkpt lat="49.20962" lon="0.09479">
        <ele>119.6</ele>
        <time>2020-10-22T10:14:13.000Z</time>
      </trkpt>
      <trkpt lat="49.20957" lon="0.09457">
        <ele>119.4</ele>
        <time>2020-10-22T10:14:24.000Z</time>
      </trkpt>
      <trkpt lat="49.2095" lon="0.09439">
        <ele>118.9</ele>
        <time>2020-10-22T10:14:31.000Z</time>
      </trkpt>
      <trkpt lat="49.20943" lon="0.09418">
        <ele>117.7</ele>
        <time>2020-10-22T10:14:45.000Z</time>
      </trkpt>
      <trkpt lat="49.20938" lon="0.09397">
        <ele>117.6</ele>
        <time>2020-10-22T10:15:01.000Z</time>
      </trkpt>
      <trkpt lat="49.20925" lon="0.0939">
        <ele>117.1</ele>
        <time>2020-10-22T10:15:14.000Z</time>
      </trkpt>
      <trkpt lat="49.20912" lon="0.0938">
        <ele>118.4</ele>
        <time>2020-10-22T10:15:25.000Z</time>
      </trkpt>
      <trkpt lat="49.20908" lon="0.09359">
        <ele>117.6</ele>
        <time>2020-10-22T10:15:38.000Z</time>
      </trkpt>
      <trkpt lat="49.20905" lon="0.09338">
        <ele>116.7</ele>
        <time>2020-10-22T10:15:49.000Z</time>
      </trkpt>
      <trkpt lat="49.209" lon="0.09318">
        <ele>115.9</ele>
        <time>2020-10-22T10:16:04.000Z</time>
      </trkpt>
      <trkpt lat="49.20893" lon="0.09297">
        <ele>115.6</ele>
        <time>2020-10-22T10:16:12.000Z</time>
      </trkpt>
      <trkpt lat="49.20889" lon="0.09277">
        <ele>113.8</ele>
        <time>2020-10-22T10:16:27.000Z</time>
      </trkpt>
      <trkpt lat="49.20884" lon="0.09257">
        <ele>113</ele>
        <time>2020-10-22T10:16:42.000Z</time>
      </trkpt>
      <trkpt lat="49.20879" lon="0.09238">
        <ele>111.5</ele>
        <time>2020-10-22T10:17:00.000Z</time>
      </trkpt>
      <trkpt lat="49.20872" lon="0.09219">
        <ele>110</ele>
        <time>2020-10-22T10:17:11.000Z</time>
      </trkpt>
      <trkpt lat="49.20866" lon="0.09198">
        <ele>109.9</ele>
        <time>2020-10-22T10:17:21.000Z</time>
      </trkpt>
      <trkpt lat="49.20858" lon="0.0918">
        <ele>109.1</ele>
        <time>2020-10-22T10:17:32.000Z</time>
      </trkpt>
      <trkpt lat="49.20853" lon="0.0916">
        <ele>108.9</ele>
        <time>2020-10-22T10:17:46.000Z</time>
      </trkpt>
      <trkpt lat="49.20849" lon="0.09138">
        <ele>107.6</ele>
        <time>2020-10-22T10:17:59.000Z</time>
      </trkpt>
      <trkpt lat="49.20847" lon="0.09115">
        <ele>109</ele>
        <time>2020-10-22T10:18:10.000Z</time>
      </trkpt>
      <trkpt lat="49.20839" lon="0.09098">
        <ele>108.1</ele>
        <time>2020-10-22T10:18:20.000Z</time>
      </trkpt>
      <trkpt lat="49.20829" lon="0.09079">
        <ele>106.3</ele>
        <time>2020-10-22T10:18:32.000Z</time>
      </trkpt>
      <trkpt lat="49.20824" lon="0.09059">
        <ele>105.8</ele>
        <time>2020-10-22T10:18:43.000Z</time>
      </trkpt>
      <trkpt lat="49.20817" lon="0.09041">
        <ele>104.2</ele>
        <time>2020-10-22T10:18:58.000Z</time>
      </trkpt>
      <trkpt lat="49.20813" lon="0.0902">
        <ele>103.2</ele>
        <time>2020-10-22T10:19:09.000Z</time>
      </trkpt>
      <trkpt lat="49.20806" lon="0.09002">
        <ele>101.5</ele>
        <time>2020-10-22T10:19:21.000Z</time>
      </trkpt>
      <trkpt lat="49.208" lon="0.08983">
        <ele>99.6</ele>
        <time>2020-10-22T10:19:36.000Z</time>
      </trkpt>
      <trkpt lat="49.2079" lon="0.08967">
        <ele>98.3</ele>
        <time>2020-10-22T10:19:51.000Z</time>
      </trkpt>
      <trkpt lat="49.20793" lon="0.08946">
        <ele>95.7</ele>
        <time>2020-10-22T10:20:13.000Z</time>
      </trkpt>
      <trkpt lat="49.20804" lon="0.08934">
        <ele>94.1</ele>
        <time>2020-10-22T10:20:28.000Z</time>
      </trkpt>
      <trkpt lat="49.20818" lon="0.08927">
        <ele>92.9</ele>
        <time>2020-10-22T10:20:49.000Z</time>
      </trkpt>
      <trkpt lat="49.20822" lon="0.08906">
        <ele>90</ele>
        <time>2020-10-22T10:23:49.000Z</time>
      </trkpt>
      <trkpt lat="49.20814" lon="0.08888">
        <ele>87.8</ele>
        <time>2020-10-22T10:23:59.000Z</time>
      </trkpt>
      <trkpt lat="49.20811" lon="0.08867">
        <ele>88.1</ele>
        <time>2020-10-22T10:24:12.000Z</time>
      </trkpt>
      <trkpt lat="49.20805" lon="0.08849">
        <ele>87.8</ele>
        <time>2020-10-22T10:24:21.000Z</time>
      </trkpt>
      <trkpt lat="49.20799" lon="0.08829">
        <ele>87.1</ele>
        <time>2020-10-22T10:24:35.000Z</time>
      </trkpt>
      <trkpt lat="49.20791" lon="0.08812">
        <ele>87.4</ele>
        <time>2020-10-22T10:24:45.000Z</time>
      </trkpt>
      <trkpt lat="49.20782" lon="0.08796">
        <ele>87.3</ele>
        <time>2020-10-22T10:24:53.000Z</time>
      </trkpt>
      <trkpt lat="49.20774" lon="0.08779">
        <ele>86.6</ele>
        <time>2020-10-22T10:25:02.000Z</time>
      </trkpt>
      <trkpt lat="49.20766" lon="0.08761">
        <ele>87.5</ele>
        <time>2020-10-22T10:25:11.000Z</time>
      </trkpt>
      <trkpt lat="49.20767" lon="0.0874">
        <ele>87.1</ele>
        <time>2020-10-22T10:25:23.000Z</time>
      </trkpt>
      <trkpt lat="49.20767" lon="0.08719">
        <ele>87</ele>
        <time>2020-10-22T10:25:33.000Z</time>
      </trkpt>
      <trkpt lat="49.20763" lon="0.08698">
        <ele>86.3</ele>
        <time>2020-10-22T10:25:42.000Z</time>
      </trkpt>
      <trkpt lat="49.2076" lon="0.08676">
        <ele>85.3</ele>
        <time>2020-10-22T10:25:53.000Z</time>
      </trkpt>
      <trkpt lat="49.20755" lon="0.08657">
        <ele>85.3</ele>
        <time>2020-10-22T10:26:06.000Z</time>
      </trkpt>
      <trkpt lat="49.20752" lon="0.08634">
        <ele>83.1</ele>
        <time>2020-10-22T10:26:18.000Z</time>
      </trkpt>
      <trkpt lat="49.20743" lon="0.08615">
        <ele>83.4</ele>
        <time>2020-10-22T10:26:29.000Z</time>
      </trkpt>
      <trkpt lat="49.20735" lon="0.08598">
        <ele>82.6</ele>
        <time>2020-10-22T10:26:50.000Z</time>
      </trkpt>
      <trkpt lat="49.20721" lon="0.08597">
        <ele>81.9</ele>
        <time>2020-10-22T10:27:01.000Z</time>
      </trkpt>
      <trkpt lat="49.2071" lon="0.08583">
        <ele>81.5</ele>
        <time>2020-10-22T10:27:08.000Z</time>
      </trkpt>
      <trkpt lat="49.207" lon="0.08567">
        <ele>81.6</ele>
        <time>2020-10-22T10:27:18.000Z</time>
      </trkpt>
      <trkpt lat="49.20688" lon="0.08553">
        <ele>79.8</ele>
        <time>2020-10-22T10:27:30.000Z</time>
      </trkpt>
      <trkpt lat="49.20678" lon="0.08537">
        <ele>79.8</ele>
        <time>2020-10-22T10:27:41.000Z</time>
      </trkpt>
      <trkpt lat="49.20668" lon="0.08523">
        <ele>79.4</ele>
        <time>2020-10-22T10:27:53.000Z</time>
      </trkpt>
      <trkpt lat="49.20657" lon="0.08507">
        <ele>78.6</ele>
        <time>2020-10-22T10:28:02.000Z</time>
      </trkpt>
      <trkpt lat="49.20653" lon="0.08486">
        <ele>77.3</ele>
        <time>2020-10-22T10:28:12.000Z</time>
      </trkpt>
      <trkpt lat="49.20642" lon="0.08471">
        <ele>76.9</ele>
        <time>2020-10-22T10:28:22.000Z</time>
      </trkpt>
      <trkpt lat="49.20633" lon="0.08456">
        <ele>75.8</ele>
        <time>2020-10-22T10:28:34.000Z</time>
      </trkpt>
      <trkpt lat="49.20627" lon="0.08437">
        <ele>76.8</ele>
        <time>2020-10-22T10:28:46.000Z</time>
      </trkpt>
      <trkpt lat="49.20616" lon="0.08423">
        <ele>76.4</ele>
        <time>2020-10-22T10:29:02.000Z</time>
      </trkpt>
      <trkpt lat="49.20614" lon="0.08401">
        <ele>76.7</ele>
        <time>2020-10-22T10:29:12.000Z</time>
      </trkpt>
      <trkpt lat="49.20607" lon="0.08383">
        <ele>78.1</ele>
        <time>2020-10-22T10:29:25.000Z</time>
      </trkpt>
      <trkpt lat="49.206" lon="0.08364">
        <ele>78</ele>
        <time>2020-10-22T10:29:38.000Z</time>
      </trkpt>
      <trkpt lat="49.20594" lon="0.08343">
        <ele>79.6</ele>
        <time>2020-10-22T10:29:52.000Z</time>
      </trkpt>
      <trkpt lat="49.2059" lon="0.08324">
        <ele>79.1</ele>
        <time>2020-10-22T10:30:09.000Z</time>
      </trkpt>
      <trkpt lat="49.20589" lon="0.08303">
        <ele>77.9</ele>
        <time>2020-10-22T10:30:23.000Z</time>
      </trkpt>
      <trkpt lat="49.20585" lon="0.08282">
        <ele>76.9</ele>
        <time>2020-10-22T10:30:34.000Z</time>
      </trkpt>
      <trkpt lat="49.20581" lon="0.08262">
        <ele>77.2</ele>
        <time>2020-10-22T10:30:45.000Z</time>
      </trkpt>
      <trkpt lat="49.20581" lon="0.08239">
        <ele>76.4</ele>
        <time>2020-10-22T10:30:56.000Z</time>
      </trkpt>
      <trkpt lat="49.20575" lon="0.0822">
        <ele>76</ele>
        <time>2020-10-22T10:31:07.000Z</time>
      </trkpt>
      <trkpt lat="49.2057" lon="0.08201">
        <ele>75.6</ele>
        <time>2020-10-22T10:31:21.000Z</time>
      </trkpt>
      <trkpt lat="49.20564" lon="0.08182">
        <ele>74.8</ele>
        <time>2020-10-22T10:31:33.000Z</time>
      </trkpt>
      <trkpt lat="49.20556" lon="0.08164">
        <ele>74.7</ele>
        <time>2020-10-22T10:31:44.000Z</time>
      </trkpt>
      <trkpt lat="49.20552" lon="0.08143">
        <ele>73.7</ele>
        <time>2020-10-22T10:31:56.000Z</time>
      </trkpt>
      <trkpt lat="49.20545" lon="0.08124">
        <ele>73.6</ele>
        <time>2020-10-22T10:32:07.000Z</time>
      </trkpt>
      <trkpt lat="49.2054" lon="0.08103">
        <ele>73</ele>
        <time>2020-10-22T10:32:20.000Z</time>
      </trkpt>
      <trkpt lat="49.20532" lon="0.08086">
        <ele>72.6</ele>
        <time>2020-10-22T10:32:31.000Z</time>
      </trkpt>
      <trkpt lat="49.20526" lon="0.08067">
        <ele>72.1</ele>
        <time>2020-10-22T10:32:43.000Z</time>
      </trkpt>
      <trkpt lat="49.2052" lon="0.08047">
        <ele>71.5</ele>
        <time>2020-10-22T10:32:55.000Z</time>
      </trkpt>
      <trkpt lat="49.20512" lon="0.0803">
        <ele>71.3</ele>
        <time>2020-10-22T10:33:08.000Z</time>
      </trkpt>
      <trkpt lat="49.20506" lon="0.0801">
        <ele>71.3</ele>
        <time>2020-10-22T10:33:22.000Z</time>
      </trkpt>
      <trkpt lat="49.205" lon="0.07991">
        <ele>70.5</ele>
        <time>2020-10-22T10:33:33.000Z</time>
      </trkpt>
      <trkpt lat="49.20495" lon="0.07971">
        <ele>70.1</ele>
        <time>2020-10-22T10:33:48.000Z</time>
      </trkpt>
      <trkpt lat="49.20489" lon="0.07952">
        <ele>69.9</ele>
        <time>2020-10-22T10:33:59.000Z</time>
      </trkpt>
      <trkpt lat="49.20482" lon="0.07933">
        <ele>69.8</ele>
        <time>2020-10-22T10:34:09.000Z</time>
      </trkpt>
      <trkpt lat="49.20477" lon="0.07914">
        <ele>70.1</ele>
        <time>2020-10-22T10:34:23.000Z</time>
      </trkpt>
      <trkpt lat="49.2047" lon="0.07895">
        <ele>69.2</ele>
        <time>2020-10-22T10:34:36.000Z</time>
      </trkpt>
      <trkpt lat="49.20464" lon="0.07876">
        <ele>69.7</ele>
        <time>2020-10-22T10:34:50.000Z</time>
      </trkpt>
      <trkpt lat="49.20463" lon="0.07854">
        <ele>68.9</ele>
        <time>2020-10-22T10:35:07.000Z</time>
      </trkpt>
      <trkpt lat="49.20472" lon="0.07838">
        <ele>69.2</ele>
        <time>2020-10-22T10:35:17.000Z</time>
      </trkpt>
      <trkpt lat="49.20483" lon="0.07826">
        <ele>68.5</ele>
        <time>2020-10-22T10:35:32.000Z</time>
      </trkpt>
      <trkpt lat="49.20496" lon="0.0782">
        <ele>67.9</ele>
        <time>2020-10-22T10:35:48.000Z</time>
      </trkpt>
      <trkpt lat="49.20509" lon="0.07826">
        <ele>68.1</ele>
        <time>2020-10-22T10:36:06.000Z</time>
      </trkpt>
      <trkpt lat="49.20521" lon="0.07838">
        <ele>68.1</ele>
        <time>2020-10-22T10:36:18.000Z</time>
      </trkpt>
      <trkpt lat="49.20526" lon="0.07818">
        <ele>68.2</ele>
        <time>2020-10-22T10:36:37.000Z</time>
      </trkpt>
      <trkpt lat="49.20526" lon="0.07798">
        <ele>68.2</ele>
        <time>2020-10-22T10:36:46.000Z</time>
      </trkpt>
      <trkpt lat="49.20527" lon="0.07778">
        <ele>66.2</ele>
        <time>2020-10-22T10:36:59.000Z</time>
      </trkpt>
    </trkseg>
  </trk>
</gpx>